Wetterdaten: Sonntag, 02.08.2020
Datum Zeit Temp. Aussen Temp. o. S. Temp +5cm Feuchte Auss Luftdruck Regen Sonnenschein Regendauer Solar Windben Empfang
02.08.2020 00:00 21,9 C 20,0 C 20,6 C 70 % 1014,8 hPa 0,0 l/m 0 min 0 min 0 W/m 3,2 km/h (1 Bft) 95,74 %
02.08.2020 00:02 21,9 C 20,0 C 20,6 C 70 % 1014,8 hPa 0,0 l/m 0 min 0 min 0 W/m 0,0 km/h (0 Bft) 9,09 %
02.08.2020 00:04 21,8 C 20,0 C 20,6 C 70 % 1014,9 hPa 0,0 l/m 0 min 0 min 0 W/m 6,4 km/h (2 Bft) 97,62 %
02.08.2020 00:07 21,8 C 20,0 C 20,6 C 70 % 1015,0 hPa 0,0 l/m 0 min 0 min 0 W/m 3,2 km/h (1 Bft) 94,29 %
02.08.2020 00:08 21,8 C 20,0 C 20,6 C 70 % 1015,0 hPa 0,0 l/m 0 min 0 min 0 W/m 3,2 km/h (1 Bft) 100,00 %
02.08.2020 00:10 21,8 C 20,0 C 20,6 C 70 % 1015,0 hPa 0,0 l/m 0 min 0 min 0 W/m 3,2 km/h (1 Bft) 91,49 %
02.08.2020 00:12 21,7 C 20,0 C 20,6 C 70 % 1014,9 hPa 0,0 l/m 0 min 0 min 0 W/m 0,0 km/h (0 Bft) 91,49 %
02.08.2020 00:14 21,7 C 20,0 C 20,6 C 70 % 1015,0 hPa 0,0 l/m 0 min 0 min 0 W/m 3,2 km/h (1 Bft) 95,74 %
02.08.2020 00:16 21,7 C 20,0 C 20,6 C 70 % 1014,9 hPa 0,0 l/m 0 min 0 min 0 W/m 3,2 km/h (1 Bft) 95,74 %
02.08.2020 00:18 21,7 C 20,0 C 20,6 C 70 % 1014,9 hPa 0,0 l/m 0 min 0 min 0 W/m 3,2 km/h (1 Bft) 93,62 %
02.08.2020 00:20 21,7 C 20,0 C 20,6 C 70 % 1015,0 hPa 0,0 l/m 0 min 0 min 0 W/m 6,4 km/h (2 Bft) 95,65 %
02.08.2020 00:22 21,6 C 20,0 C 20,6 C 70 % 1015,0 hPa 0,0 l/m 0 min 0 min 0 W/m 9,7 km/h (2 Bft) 95,74 %
02.08.2020 00:24 21,6 C 20,0 C 20,6 C 70 % 1015,0 hPa 0,0 l/m 0 min 0 min 0 W/m 3,2 km/h (1 Bft) 95,74 %
02.08.2020 00:26 21,6 C 20,0 C 20,6 C 70 % 1015,0 hPa 0,0 l/m 0 min 0 min 0 W/m 6,4 km/h (2 Bft) 95,74 %
02.08.2020 00:28 21,6 C 20,0 C 20,6 C 70 % 1015,0 hPa 0,0 l/m 0 min 0 min 0 W/m 0,0 km/h (0 Bft) 95,74 %
02.08.2020 00:30 21,6 C 20,0 C 20,6 C 70 % 1015,0 hPa 0,0 l/m 0 min 0 min 0 W/m 3,2 km/h (1 Bft) 97,83 %
02.08.2020 00:32 21,6 C 20,0 C 20,6 C 70 % 1015,1 hPa 0,0 l/m 0 min 0 min 0 W/m 9,7 km/h (2 Bft) 97,87 %
02.08.2020 00:34 21,5 C 20,0 C 20,6 C 70 % 1015,1 hPa 0,0 l/m 0 min 0 min 0 W/m 3,2 km/h (1 Bft) 95,74 %
02.08.2020 00:36 21,5 C 20,0 C 20,6 C 70 % 1015,1 hPa 0,0 l/m 0 min 0 min 0 W/m 0,0 km/h (0 Bft) 97,87 %
02.08.2020 00:38 21,5 C 20,0 C 20,6 C 70 % 1015,0 hPa 0,0 l/m 0 min 0 min 0 W/m 3,2 km/h (1 Bft) 97,87 %
02.08.2020 00:40 21,5 C 20,0 C 20,0 C 70 % 1015,0 hPa 0,0 l/m 0 min 0 min 0 W/m 3,2 km/h (1 Bft) 97,87 %
02.08.2020 00:42 21,4 C 20,0 C 20,0 C 71 % 1014,9 hPa 0,0 l/m 0 min 0 min 0 W/m 3,2 km/h (1 Bft) 95,65 %
02.08.2020 00:44 21,4 C 20,0 C 20,0 C 71 % 1014,8 hPa 0,0 l/m 0 min 0 min 0 W/m 3,2 km/h (1 Bft) 95,74 %
02.08.2020 00:46 21,4 C 20,0 C 20,0 C 71 % 1014,9 hPa 0,0 l/m 0 min 0 min 0 W/m 6,4 km/h (2 Bft) 97,87 %
02.08.2020 00:48 21,4 C 20,0 C 20,0 C 71 % 1014,9 hPa 0,0 l/m 0 min 0 min 0 W/m 0,0 km/h (0 Bft) 97,87 %
02.08.2020 00:50 21,4 C 20,0 C 20,0 C 71 % 1014,9 hPa 0,0 l/m 0 min 0 min 0 W/m 0,0 km/h (0 Bft) 97,87 %
02.08.2020 00:52 21,4 C 20,0 C 20,0 C 71 % 1015,0 hPa 0,0 l/m 0 min 0 min 0 W/m 0,0 km/h (0 Bft) 95,74 %
02.08.2020 00:54 21,4 C 20,0 C 20,0 C 71 % 1015,0 hPa 0,0 l/m 0 min 0 min 0 W/m 3,2 km/h (1 Bft) 95,65 %
02.08.2020 00:56 21,4 C 20,0 C 20,0 C 71 % 1015,0 hPa 0,0 l/m 0 min 0 min 0 W/m 3,2 km/h (1 Bft) 95,74 %
02.08.2020 00:58 21,3 C 20,0 C 20,0 C 71 % 1015,0 hPa 0,0 l/m 0 min 0 min 0 W/m 9,7 km/h (2 Bft) 97,87 %
02.08.2020 01:00 21,3 C 20,0 C 20,0 C 71 % 1015,0 hPa 0,0 l/m 0 min 0 min 0 W/m 3,2 km/h (1 Bft) 97,37 %
02.08.2020 01:02 21,3 C 20,0 C 20,0 C 71 % 1015,0 hPa 0,0 l/m 0 min 0 min 0 W/m 6,4 km/h (2 Bft) 95,74 %
02.08.2020 01:04 21,3 C 20,0 C 20,0 C 71 % 1015,1 hPa 0,0 l/m 0 min 0 min 0 W/m 3,2 km/h (1 Bft) 100,00 %
02.08.2020 01:06 21,3 C 20,0 C 20,0 C 71 % 1015,1 hPa 0,0 l/m 0 min 0 min 0 W/m 3,2 km/h (1 Bft) 100,00 %
02.08.2020 01:08 21,3 C 20,0 C 20,0 C 71 % 1015,1 hPa 0,0 l/m 0 min 0 min 0 W/m 3,2 km/h (1 Bft) 100,00 %
02.08.2020 01:10 21,3 C 20,0 C 20,0 C 71 % 1015,1 hPa 0,0 l/m 0 min 0 min 0 W/m 3,2 km/h (1 Bft) 100,00 %
02.08.2020 01:12 21,2 C 20,0 C 20,0 C 72 % 1015,1 hPa 0,0 l/m 0 min 0 min 0 W/m 6,4 km/h (2 Bft) 100,00 %
02.08.2020 01:14 21,2 C 20,0 C 20,0 C 72 % 1015,2 hPa 0,0 l/m 0 min 0 min 0 W/m 6,4 km/h (2 Bft) 97,87 %
02.08.2020 01:16 21,2 C 20,0 C 20,0 C 72 % 1015,2 hPa 0,0 l/m 0 min 0 min 0 W/m 6,4 km/h (2 Bft) 100,00 %
02.08.2020 01:18 21,2 C 20,0 C 20,0 C 72 % 1015,1 hPa 0,0 l/m 0 min 0 min 0 W/m 3,2 km/h (1 Bft) 100,00 %
02.08.2020 01:20 21,2 C 20,0 C 20,0 C 72 % 1015,1 hPa 0,0 l/m 0 min 0 min 0 W/m 3,2 km/h (1 Bft) 100,00 %
02.08.2020 01:22 21,2 C 20,0 C 20,0 C 72 % 1015,1 hPa 0,0 l/m 0 min 0 min 0 W/m 3,2 km/h (1 Bft) 100,00 %
02.08.2020 01:24 21,2 C 20,0 C 20,0 C 72 % 1015,1 hPa 0,0 l/m 0 min 0 min 0 W/m 3,2 km/h (1 Bft) 100,00 %
02.08.2020 01:26 21,2 C 20,0 C 20,0 C 72 % 1015,1 hPa 0,0 l/m 0 min 0 min 0 W/m 3,2 km/h (1 Bft) 100,00 %
02.08.2020 01:28 21,1 C 20,0 C 20,0 C 72 % 1015,2 hPa 0,0 l/m 0 min 0 min 0 W/m 3,2 km/h (1 Bft) 97,87 %
02.08.2020 01:30 21,1 C 20,0 C 20,0 C 72 % 1015,2 hPa 0,0 l/m 0 min 0 min 0 W/m 3,2 km/h (1 Bft) 100,00 %
02.08.2020 01:32 21,1 C 20,0 C 20,0 C 72 % 1015,2 hPa 0,0 l/m 0 min 0 min 0 W/m 0,0 km/h (0 Bft) 100,00 %
02.08.2020 01:34 21,1 C 20,0 C 20,0 C 72 % 1015,2 hPa 0,0 l/m 0 min 0 min 0 W/m 3,2 km/h (1 Bft) 100,00 %
02.08.2020 01:36 21,1 C 20,0 C 20,0 C 72 % 1015,2 hPa 0,0 l/m 0 min 0 min 0 W/m 3,2 km/h (1 Bft) 100,00 %
02.08.2020 01:38 21,1 C 20,0 C 20,0 C 72 % 1015,1 hPa 0,0 l/m 0 min 0 min 0 W/m 6,4 km/h (2 Bft) 100,00 %
02.08.2020 01:40 21,1 C 20,0 C 20,0 C 72 % 1015,1 hPa 0,0 l/m 0 min 0 min 0 W/m 3,2 km/h (1 Bft) 100,00 %
02.08.2020 01:42 21,1 C 20,0 C 20,0 C 72 % 1015,1 hPa 0,0 l/m 0 min 0 min 0 W/m 3,2 km/h (1 Bft) 100,00 %
02.08.2020 01:44 21,1 C 20,0 C 20,0 C 72 % 1015,1 hPa 0,0 l/m 0 min 0 min 0 W/m 3,2 km/h (1 Bft) 100,00 %
02.08.2020 01:46 21,1 C 19,4 C 20,0 C 72 % 1015,2 hPa 0,0 l/m 0 min 0 min 0 W/m 3,2 km/h (1 Bft) 97,87 %
02.08.2020 01:48 21,1 C 19,4 C 20,0 C 72 % 1015,1 hPa 0,0 l/m 0 min 0 min 0 W/m 6,4 km/h (2 Bft) 100,00 %
02.08.2020 01:50 21,1 C 19,4 C 20,0 C 72 % 1015,1 hPa 0,0 l/m 0 min 0 min 0 W/m 6,4 km/h (2 Bft) 97,87 %
02.08.2020 01:52 21,0 C 19,4 C 20,0 C 72 % 1015,1 hPa 0,0 l/m 0 min 0 min 0 W/m 6,4 km/h (2 Bft) 100,00 %
02.08.2020 01:54 21,0 C 19,4 C 20,0 C 73 % 1015,2 hPa 0,0 l/m 0 min 0 min 0 W/m 3,2 km/h (1 Bft) 95,74 %
02.08.2020 01:56 21,0 C 19,4 C 20,0 C 73 % 1015,1 hPa 0,0 l/m 0 min 0 min 0 W/m 16,1 km/h (3 Bft) 100,00 %
02.08.2020 01:58 21,0 C 19,4 C 20,0 C 73 % 1015,1 hPa 0,0 l/m 0 min 0 min 0 W/m 9,7 km/h (2 Bft) 97,87 %
02.08.2020 02:00 20,9 C 19,4 C 20,0 C 73 % 1015,1 hPa 0,0 l/m 0 min 0 min 0 W/m 6,4 km/h (2 Bft) 97,87 %
02.08.2020 02:02 20,9 C 19,4 C 20,0 C 73 % 1015,1 hPa 0,0 l/m 0 min 0 min 0 W/m 9,7 km/h (2 Bft) 95,74 %
02.08.2020 02:04 20,9 C 19,4 C 19,4 C 73 % 1015,1 hPa 0,0 l/m 0 min 0 min 0 W/m 6,4 km/h (2 Bft) 97,87 %
02.08.2020 02:06 20,9 C 19,4 C 19,4 C 73 % 1015,1 hPa 0,0 l/m 0 min 0 min 0 W/m 6,4 km/h (2 Bft) 97,83 %
02.08.2020 02:08 20,9 C 19,4 C 19,4 C 74 % 1015,1 hPa 0,0 l/m 0 min 0 min 0 W/m 12,9 km/h (3 Bft) 97,87 %
02.08.2020 02:10 20,9 C 19,4 C 19,4 C 74 % 1015,1 hPa 0,0 l/m 0 min 0 min 0 W/m 3,2 km/h (1 Bft) 97,87 %
02.08.2020 02:12 20,9 C 19,4 C 19,4 C 74 % 1015,1 hPa 0,0 l/m 0 min 0 min 0 W/m 3,2 km/h (1 Bft) 97,87 %
02.08.2020 02:14 20,9 C 19,4 C 19,4 C 74 % 1015,1 hPa 0,0 l/m 0 min 0 min 0 W/m 6,4 km/h (2 Bft) 97,87 %
02.08.2020 02:16 20,8 C 19,4 C 19,4 C 74 % 1015,1 hPa 0,0 l/m 0 min 0 min 0 W/m 3,2 km/h (1 Bft) 95,74 %
02.08.2020 02:18 20,8 C 19,4 C 19,4 C 75 % 1015,1 hPa 0,0 l/m 0 min 0 min 0 W/m 3,2 km/h (1 Bft) 95,65 %
02.08.2020 02:20 20,8 C 19,4 C 19,4 C 75 % 1015,1 hPa 0,0 l/m 0 min 0 min 0 W/m 3,2 km/h (1 Bft) 97,87 %
02.08.2020 02:22 20,8 C 19,4 C 19,4 C 75 % 1015,1 hPa 0,0 l/m 0 min 0 min 0 W/m 0,0 km/h (0 Bft) 95,74 %
02.08.2020 02:24 20,8 C 19,4 C 19,4 C 75 % 1015,1 hPa 0,0 l/m 0 min 0 min 0 W/m 6,4 km/h (2 Bft) 97,87 %
02.08.2020 02:26 20,8 C 18,9 C 19,4 C 75 % 1015,1 hPa 0,0 l/m 0 min 0 min 0 W/m 6,4 km/h (2 Bft) 97,87 %
02.08.2020 02:28 20,8 C 18,9 C 19,4 C 75 % 1015,0 hPa 0,0 l/m 0 min 0 min 0 W/m 6,4 km/h (2 Bft) 97,87 %
02.08.2020 02:30 20,7 C 18,9 C 19,4 C 75 % 1015,1 hPa 0,0 l/m 0 min 0 min 0 W/m 3,2 km/h (1 Bft) 97,83 %
02.08.2020 02:32 20,7 C 18,9 C 19,4 C 76 % 1015,1 hPa 0,0 l/m 0 min 0 min 0 W/m 6,4 km/h (2 Bft) 97,87 %
02.08.2020 02:34 20,7 C 18,9 C 19,4 C 76 % 1015,0 hPa 0,0 l/m 0 min 0 min 0 W/m 6,4 km/h (2 Bft) 93,62 %
02.08.2020 02:36 20,7 C 18,9 C 19,4 C 76 % 1015,0 hPa 0,0 l/m 0 min 0 min 0 W/m 6,4 km/h (2 Bft) 93,62 %
02.08.2020 02:38 20,6 C 18,9 C 19,4 C 76 % 1015,0 hPa 0,0 l/m 0 min 0 min 0 W/m 9,7 km/h (2 Bft) 97,87 %
02.08.2020 02:40 20,6 C 18,9 C 19,4 C 76 % 1015,0 hPa 0,0 l/m 0 min 0 min 0 W/m 9,7 km/h (2 Bft) 95,74 %
02.08.2020 02:42 20,6 C 18,9 C 19,4 C 76 % 1015,0 hPa 0,0 l/m 0 min 0 min 0 W/m 3,2 km/h (1 Bft) 100,00 %
02.08.2020 02:44 20,6 C 18,9 C 19,4 C 76 % 1015,0 hPa 0,0 l/m 0 min 0 min 0 W/m 3,2 km/h (1 Bft) 95,74 %
02.08.2020 02:46 20,6 C 18,9 C 19,4 C 76 % 1015,0 hPa 0,0 l/m 0 min 0 min 0 W/m 6,4 km/h (2 Bft) 95,74 %
02.08.2020 02:48 20,6 C 18,9 C 19,4 C 76 % 1015,0 hPa 0,0 l/m 0 min 0 min 0 W/m 6,4 km/h (2 Bft) 97,87 %
02.08.2020 02:50 20,5 C 18,9 C 19,4 C 76 % 1015,0 hPa 0,0 l/m 0 min 0 min 0 W/m 3,2 km/h (1 Bft) 100,00 %
02.08.2020 02:52 20,5 C 18,9 C 19,4 C 76 % 1015,0 hPa 0,0 l/m 0 min 0 min 0 W/m 3,2 km/h (1 Bft) 97,83 %
02.08.2020 02:54 20,5 C 18,9 C 19,4 C 77 % 1015,0 hPa 0,0 l/m 0 min 0 min 0 W/m 3,2 km/h (1 Bft) 97,87 %
02.08.2020 02:56 20,4 C 18,9 C 18,9 C 77 % 1015,0 hPa 0,0 l/m 0 min 0 min 0 W/m 3,2 km/h (1 Bft) 95,74 %
02.08.2020 02:58 20,4 C 18,9 C 18,9 C 77 % 1015,0 hPa 0,0 l/m 0 min 0 min 0 W/m 3,2 km/h (1 Bft) 100,00 %
02.08.2020 03:00 20,4 C 18,9 C 18,9 C 77 % 1015,0 hPa 0,0 l/m 0 min 0 min 0 W/m 3,2 km/h (1 Bft) 97,96 %
02.08.2020 03:02 20,3 C 18,9 C 18,9 C 77 % 1015,0 hPa 0,0 l/m 0 min 0 min 0 W/m 3,2 km/h (1 Bft) 95,74 %
02.08.2020 03:04 20,3 C 18,9 C 18,9 C 77 % 1014,9 hPa 0,0 l/m 0 min 0 min 0 W/m 3,2 km/h (1 Bft) 97,87 %
02.08.2020 03:06 20,3 C 18,9 C 18,9 C 77 % 1015,0 hPa 0,0 l/m 0 min 0 min 0 W/m 9,7 km/h (2 Bft) 95,65 %
02.08.2020 03:08 20,3 C 18,9 C 18,9 C 77 % 1015,0 hPa 0,0 l/m 0 min 0 min 0 W/m 6,4 km/h (2 Bft) 95,74 %
02.08.2020 03:10 20,3 C 18,9 C 18,9 C 77 % 1015,0 hPa 0,0 l/m 0 min 0 min 0 W/m 3,2 km/h (1 Bft) 95,74 %
02.08.2020 03:12 20,3 C 18,9 C 18,9 C 77 % 1015,0 hPa 0,0 l/m 0 min 0 min 0 W/m 3,2 km/h (1 Bft) 95,74 %
02.08.2020 03:14 20,2 C 18,9 C 18,9 C 77 % 1015,0 hPa 0,0 l/m 0 min 0 min 0 W/m 3,2 km/h (1 Bft) 95,74 %
02.08.2020 03:16 20,2 C 18,9 C 18,9 C 77 % 1015,0 hPa 0,0 l/m 0 min 0 min 0 W/m 6,4 km/h (2 Bft) 95,74 %
02.08.2020 03:18 20,2 C 18,9 C 18,9 C 77 % 1014,9 hPa 0,0 l/m 0 min 0 min 0 W/m 6,4 km/h (2 Bft) 95,65 %
02.08.2020 03:20 20,2 C 18,9 C 18,9 C 77 % 1014,9 hPa 0,0 l/m 0 min 0 min 0 W/m 3,2 km/h (1 Bft) 95,74 %
02.08.2020 03:22 20,2 C 18,9 C 18,9 C 78 % 1014,9 hPa 0,0 l/m 0 min 0 min 0 W/m 3,2 km/h (1 Bft) 95,74 %
02.08.2020 03:24 20,1 C 18,9 C 18,9 C 77 % 1014,9 hPa 0,0 l/m 0 min 0 min 0 W/m 6,4 km/h (2 Bft) 95,74 %
02.08.2020 03:26 20,1 C 18,9 C 18,9 C 78 % 1014,9 hPa 0,0 l/m 0 min 0 min 0 W/m 6,4 km/h (2 Bft) 95,74 %
02.08.2020 03:28 20,1 C 18,9 C 18,9 C 78 % 1014,9 hPa 0,0 l/m 0 min 0 min 0 W/m 3,2 km/h (1 Bft) 95,74 %
02.08.2020 03:30 20,1 C 18,9 C 18,9 C 78 % 1014,9 hPa 0,0 l/m 0 min 0 min 0 W/m 3,2 km/h (1 Bft) 95,65 %
02.08.2020 03:32 20,1 C 18,9 C 18,9 C 78 % 1014,9 hPa 0,0 l/m 0 min 0 min 0 W/m 0,0 km/h (0 Bft) 93,62 %
02.08.2020 03:34 20,1 C 18,9 C 18,9 C 78 % 1014,9 hPa 0,0 l/m 0 min 0 min 0 W/m 3,2 km/h (1 Bft) 95,74 %
02.08.2020 03:36 20,1 C 18,9 C 18,9 C 78 % 1014,8 hPa 0,0 l/m 0 min 0 min 0 W/m 3,2 km/h (1 Bft) 95,74 %
02.08.2020 03:38 20,1 C 18,9 C 18,9 C 78 % 1014,8 hPa 0,0 l/m 0 min 0 min 0 W/m 0,0 km/h (0 Bft) 95,74 %
02.08.2020 03:40 20,0 C 18,3 C 18,9 C 78 % 1014,8 hPa 0,0 l/m 0 min 0 min 0 W/m 3,2 km/h (1 Bft) 95,74 %
02.08.2020 03:42 20,0 C 18,3 C 18,9 C 78 % 1014,8 hPa 0,0 l/m 0 min 0 min 0 W/m 0,0 km/h (0 Bft) 95,65 %
02.08.2020 03:44 20,0 C 18,3 C 18,9 C 78 % 1014,8 hPa 0,0 l/m 0 min 0 min 0 W/m 6,4 km/h (2 Bft) 95,74 %
02.08.2020 03:46 20,0 C 18,3 C 18,9 C 78 % 1014,8 hPa 0,0 l/m 0 min 0 min 0 W/m 3,2 km/h (1 Bft) 95,74 %
02.08.2020 03:48 19,9 C 18,3 C 18,9 C 79 % 1014,9 hPa 0,0 l/m 0 min 0 min 0 W/m 3,2 km/h (1 Bft) 91,49 %
02.08.2020 03:50 19,9 C 18,3 C 18,9 C 79 % 1014,9 hPa 0,0 l/m 0 min 0 min 0 W/m 3,2 km/h (1 Bft) 97,87 %
02.08.2020 03:52 19,9 C 18,3 C 18,9 C 79 % 1014,9 hPa 0,0 l/m 0 min 0 min 0 W/m 3,2 km/h (1 Bft) 95,65 %
02.08.2020 03:54 19,9 C 18,3 C 18,9 C 79 % 1014,9 hPa 0,0 l/m 0 min 0 min 0 W/m 3,2 km/h (1 Bft) 97,87 %
02.08.2020 03:56 19,9 C 18,3 C 18,9 C 79 % 1014,9 hPa 0,0 l/m 0 min 0 min 0 W/m 0,0 km/h (0 Bft) 97,87 %
02.08.2020 03:58 19,9 C 18,3 C 18,9 C 79 % 1014,9 hPa 0,0 l/m 0 min 0 min 0 W/m 6,4 km/h (2 Bft) 97,87 %
02.08.2020 04:00 19,9 C 18,3 C 18,9 C 79 % 1014,9 hPa 0,0 l/m 0 min 0 min 0 W/m 6,4 km/h (2 Bft) 95,74 %
02.08.2020 04:02 19,8 C 18,3 C 18,9 C 80 % 1014,9 hPa 0,0 l/m 0 min 0 min 0 W/m 3,2 km/h (1 Bft) 100,00 %
02.08.2020 04:04 19,8 C 18,3 C 18,9 C 80 % 1014,8 hPa 0,0 l/m 0 min 0 min 0 W/m 3,2 km/h (1 Bft) 100,00 %
02.08.2020 04:06 19,8 C 18,3 C 18,9 C 80 % 1014,8 hPa 0,0 l/m 0 min 0 min 0 W/m 3,2 km/h (1 Bft) 100,00 %
02.08.2020 04:08 19,8 C 18,3 C 18,3 C 80 % 1014,8 hPa 0,0 l/m 0 min 0 min 0 W/m 3,2 km/h (1 Bft) 97,87 %
02.08.2020 04:10 19,8 C 18,3 C 18,9 C 80 % 1014,8 hPa 0,0 l/m 0 min 0 min 0 W/m 6,4 km/h (2 Bft) 97,87 %
02.08.2020 04:12 19,8 C 18,3 C 18,9 C 80 % 1014,7 hPa 0,0 l/m 0 min 0 min 0 W/m 3,2 km/h (1 Bft) 97,87 %
02.08.2020 04:14 19,8 C 18,3 C 18,9 C 79 % 1014,7 hPa 0,0 l/m 0 min 0 min 0 W/m 6,4 km/h (2 Bft) 100,00 %
02.08.2020 04:16 19,7 C 18,3 C 18,3 C 79 % 1014,7 hPa 0,0 l/m 0 min 0 min 0 W/m 3,2 km/h (1 Bft) 100,00 %
02.08.2020 04:18 19,7 C 18,3 C 18,3 C 79 % 1014,7 hPa 0,0 l/m 0 min 0 min 0 W/m 3,2 km/h (1 Bft) 97,87 %
02.08.2020 04:20 19,7 C 18,3 C 18,3 C 80 % 1014,7 hPa 0,0 l/m 0 min 0 min 0 W/m 6,4 km/h (2 Bft) 100,00 %
02.08.2020 04:22 19,7 C 18,3 C 18,3 C 80 % 1014,6 hPa 0,0 l/m 0 min 0 min 0 W/m 3,2 km/h (1 Bft) 100,00 %
02.08.2020 04:24 19,7 C 18,3 C 18,3 C 80 % 1014,6 hPa 0,0 l/m 0 min 0 min 0 W/m 3,2 km/h (1 Bft) 100,00 %
02.08.2020 04:26 19,7 C 18,3 C 18,3 C 80 % 1014,7 hPa 0,0 l/m 0 min 0 min 0 W/m 0,0 km/h (0 Bft) 100,00 %
02.08.2020 04:28 19,7 C 18,3 C 18,3 C 80 % 1014,7 hPa 0,0 l/m 0 min 0 min 0 W/m 0,0 km/h (0 Bft) 100,00 %
02.08.2020 04:30 19,6 C 18,3 C 18,3 C 80 % 1014,6 hPa 0,0 l/m 0 min 0 min 0 W/m 0,0 km/h (0 Bft) 100,00 %
02.08.2020 04:32 19,6 C 18,3 C 18,3 C 80 % 1014,6 hPa 0,0 l/m 0 min 0 min 0 W/m 0,0 km/h (0 Bft) 100,00 %
02.08.2020 04:34 19,6 C 18,3 C 18,3 C 80 % 1014,5 hPa 0,0 l/m 0 min 0 min 0 W/m 0,0 km/h (0 Bft) 97,87 %
02.08.2020 04:36 19,6 C 18,3 C 18,3 C 80 % 1014,6 hPa 0,0 l/m 0 min 0 min 0 W/m 3,2 km/h (1 Bft) 97,87 %
02.08.2020 04:38 19,6 C 18,3 C 18,3 C 80 % 1014,5 hPa 0,0 l/m 0 min 0 min 0 W/m 0,0 km/h (0 Bft) 100,00 %
02.08.2020 04:40 19,6 C 18,3 C 18,3 C 80 % 1014,5 hPa 0,0 l/m 0 min 0 min 0 W/m 0,0 km/h (0 Bft) 100,00 %
02.08.2020 04:42 19,6 C 18,3 C 18,3 C 81 % 1014,5 hPa 0,0 l/m 0 min 0 min 0 W/m 0,0 km/h (0 Bft) 97,87 %
02.08.2020 04:44 19,6 C 18,3 C 18,3 C 81 % 1014,6 hPa 0,0 l/m 0 min 0 min 0 W/m 3,2 km/h (1 Bft) 97,87 %
02.08.2020 04:46 19,6 C 18,3 C 18,3 C 81 % 1014,6 hPa 0,0 l/m 0 min 0 min 0 W/m 3,2 km/h (1 Bft) 97,87 %
02.08.2020 04:48 19,5 C 18,3 C 18,3 C 81 % 1014,7 hPa 0,0 l/m 0 min 0 min 0 W/m 3,2 km/h (1 Bft) 95,74 %
02.08.2020 04:50 19,5 C 18,3 C 18,3 C 81 % 1014,7 hPa 0,0 l/m 0 min 0 min 0 W/m 3,2 km/h (1 Bft) 95,74 %
02.08.2020 04:52 19,5 C 18,3 C 18,3 C 81 % 1014,7 hPa 0,0 l/m 0 min 0 min 0 W/m 3,2 km/h (1 Bft) 95,65 %
02.08.2020 04:54 19,5 C 18,3 C 18,3 C 81 % 1014,6 hPa 0,0 l/m 0 min 0 min 0 W/m 3,2 km/h (1 Bft) 95,74 %
02.08.2020 04:56 19,4 C 18,3 C 18,3 C 81 % 1014,7 hPa 0,0 l/m 0 min 0 min 0 W/m 3,2 km/h (1 Bft) 97,87 %
02.08.2020 04:58 19,4 C 18,3 C 18,3 C 81 % 1014,6 hPa 0,0 l/m 0 min 0 min 0 W/m 3,2 km/h (1 Bft) 97,87 %
02.08.2020 05:00 19,4 C 18,3 C 18,3 C 81 % 1014,6 hPa 0,0 l/m 0 min 0 min 0 W/m 3,2 km/h (1 Bft) 95,74 %
02.08.2020 05:02 19,4 C 18,3 C 18,3 C 81 % 1014,7 hPa 0,0 l/m 0 min 0 min 0 W/m 0,0 km/h (0 Bft) 97,87 %
02.08.2020 05:04 19,4 C 18,3 C 18,3 C 81 % 1014,6 hPa 0,0 l/m 0 min 0 min 0 W/m 3,2 km/h (1 Bft) 97,83 %
02.08.2020 05:06 19,4 C 18,3 C 18,3 C 81 % 1014,7 hPa 0,0 l/m 0 min 0 min 0 W/m 3,2 km/h (1 Bft) 97,87 %
02.08.2020 05:08 19,4 C 18,3 C 18,3 C 81 % 1014,6 hPa 0,0 l/m 0 min 0 min 0 W/m 3,2 km/h (1 Bft) 97,87 %
02.08.2020 05:10 19,4 C 18,3 C 18,3 C 81 % 1014,6 hPa 0,0 l/m 0 min 0 min 0 W/m 6,4 km/h (2 Bft) 97,87 %
02.08.2020 05:12 19,4 C 18,3 C 18,3 C 81 % 1014,6 hPa 0,0 l/m 0 min 0 min 0 W/m 3,2 km/h (1 Bft) 95,74 %
02.08.2020 05:14 19,3 C 18,3 C 18,3 C 81 % 1014,5 hPa 0,0 l/m 0 min 0 min 0 W/m 6,4 km/h (2 Bft) 97,83 %
02.08.2020 05:16 19,3 C 18,3 C 18,3 C 81 % 1014,6 hPa 0,0 l/m 0 min 0 min 0 W/m 6,4 km/h (2 Bft) 97,87 %
02.08.2020 05:18 19,3 C 18,3 C 18,3 C 81 % 1014,6 hPa 0,0 l/m 0 min 0 min 0 W/m 3,2 km/h (1 Bft) 95,74 %
02.08.2020 05:20 19,3 C 18,3 C 18,3 C 81 % 1014,5 hPa 0,0 l/m 0 min 0 min 0 W/m 3,2 km/h (1 Bft) 97,87 %
02.08.2020 05:22 19,3 C 17,8 C 18,3 C 81 % 1014,6 hPa 0,0 l/m 0 min 0 min 0 W/m 3,2 km/h (1 Bft) 97,87 %
02.08.2020 05:24 19,3 C 17,8 C 18,3 C 81 % 1014,6 hPa 0,0 l/m 0 min 0 min 0 W/m 3,2 km/h (1 Bft) 97,87 %
02.08.2020 05:26 19,3 C 17,8 C 18,3 C 81 % 1014,6 hPa 0,0 l/m 0 min 0 min 0 W/m 0,0 km/h (0 Bft) 97,83 %
02.08.2020 05:28 19,3 C 17,8 C 18,3 C 81 % 1014,5 hPa 0,0 l/m 0 min 0 min 0 W/m 0,0 km/h (0 Bft) 91,49 %
02.08.2020 05:30 19,3 C 17,8 C 18,3 C 81 % 1014,5 hPa 0,0 l/m 0 min 0 min 0 W/m 3,2 km/h (1 Bft) 100,00 %
02.08.2020 05:32 19,3 C 17,8 C 18,3 C 81 % 1014,6 hPa 0,0 l/m 0 min 0 min 0 W/m 3,2 km/h (1 Bft) 97,87 %
02.08.2020 05:34 19,2 C 17,8 C 18,3 C 81 % 1014,6 hPa 0,0 l/m 0 min 0 min 0 W/m 3,2 km/h (1 Bft) 100,00 %
02.08.2020 05:36 19,2 C 17,8 C 18,3 C 81 % 1014,6 hPa 0,0 l/m 0 min 0 min 0 W/m 0,0 km/h (0 Bft) 100,00 %
02.08.2020 05:38 19,2 C 17,8 C 18,3 C 81 % 1014,6 hPa 0,0 l/m 0 min 0 min 0 W/m 3,2 km/h (1 Bft) 95,65 %
02.08.2020 05:40 19,2 C 17,8 C 18,3 C 81 % 1014,6 hPa 0,0 l/m 0 min 0 min 0 W/m 3,2 km/h (1 Bft) 97,87 %
02.08.2020 05:42 19,2 C 17,8 C 18,3 C 81 % 1014,6 hPa 0,0 l/m 0 min 0 min 0 W/m 0,0 km/h (0 Bft) 97,87 %
02.08.2020 05:44 19,2 C 17,8 C 18,3 C 81 % 1014,6 hPa 0,0 l/m 0 min 0 min 0 W/m 0,0 km/h (0 Bft) 100,00 %
02.08.2020 05:46 19,2 C 17,8 C 18,3 C 81 % 1014,6 hPa 0,0 l/m 0 min 0 min 0 W/m 0,0 km/h (0 Bft) 97,87 %
02.08.2020 05:48 19,2 C 17,8 C 18,3 C 81 % 1014,6 hPa 0,0 l/m 0 min 0 min 0 W/m 0,0 km/h (0 Bft) 97,87 %
02.08.2020 05:50 19,2 C 17,8 C 18,3 C 81 % 1014,5 hPa 0,0 l/m 0 min 0 min 0 W/m 3,2 km/h (1 Bft) 95,65 %
02.08.2020 05:52 19,2 C 17,8 C 18,3 C 81 % 1014,6 hPa 0,0 l/m 0 min 0 min 0 W/m 0,0 km/h (0 Bft) 100,00 %
02.08.2020 05:54 19,2 C 17,8 C 18,3 C 81 % 1014,5 hPa 0,0 l/m 0 min 0 min 0 W/m 3,2 km/h (1 Bft) 97,87 %
02.08.2020 05:56 19,2 C 17,8 C 18,3 C 81 % 1014,5 hPa 0,0 l/m 0 min 0 min 0 W/m 3,2 km/h (1 Bft) 97,87 %
02.08.2020 05:58 19,1 C 17,8 C 18,3 C 81 % 1014,6 hPa 0,0 l/m 0 min 0 min 0 W/m 3,2 km/h (1 Bft) 95,74 %
02.08.2020 06:00 19,1 C 17,8 C 18,3 C 81 % 1014,6 hPa 0,0 l/m 0 min 0 min 0 W/m 3,2 km/h (1 Bft) 97,87 %
02.08.2020 06:02 19,1 C 17,8 C 18,3 C 81 % 1014,5 hPa 0,0 l/m 0 min 0 min 0 W/m 3,2 km/h (1 Bft) 97,83 %
02.08.2020 06:04 19,1 C 17,8 C 18,3 C 81 % 1014,6 hPa 0,0 l/m 0 min 0 min 0 W/m 0,0 km/h (0 Bft) 95,74 %
02.08.2020 06:08 19,1 C 17,8 C 18,3 C 81 % 1014,5 hPa 0,0 l/m 0 min 0 min 0 W/m 3,2 km/h (1 Bft) 97,87 %
02.08.2020 06:10 19,1 C 17,8 C 18,3 C 82 % 1014,5 hPa 0,0 l/m 0 min 0 min 0 W/m 0,0 km/h (0 Bft) 97,87 %
02.08.2020 06:12 19,1 C 17,8 C 18,3 C 82 % 1014,5 hPa 0,0 l/m 0 min 0 min 0 W/m 3,2 km/h (1 Bft) 97,83 %
02.08.2020 06:14 19,1 C 17,8 C 18,3 C 82 % 1014,5 hPa 0,0 l/m 0 min 0 min 0 W/m 0,0 km/h (0 Bft) 97,87 %
02.08.2020 06:16 19,1 C 17,8 C 18,3 C 82 % 1014,5 hPa 0,0 l/m 0 min 0 min 0 W/m 0,0 km/h (0 Bft) 95,74 %
02.08.2020 06:18 19,1 C 17,8 C 18,3 C 82 % 1014,5 hPa 0,0 l/m 0 min 0 min 2 W/m 0,0 km/h (0 Bft) 93,62 %
02.08.2020 06:20 19,1 C 17,8 C 18,3 C 82 % 1014,5 hPa 0,0 l/m 0 min 0 min 5 W/m 3,2 km/h (1 Bft) 95,74 %
02.08.2020 06:22 19,1 C 17,8 C 18,3 C 82 % 1014,5 hPa 0,0 l/m 0 min 0 min 7 W/m 0,0 km/h (0 Bft) 97,87 %
02.08.2020 06:24 19,1 C 17,8 C 18,3 C 82 % 1014,5 hPa 0,0 l/m 0 min 0 min 8 W/m 3,2 km/h (1 Bft) 97,83 %
02.08.2020 06:26 19,1 C 17,8 C 17,8 C 82 % 1014,5 hPa 0,0 l/m 0 min 0 min 9 W/m 0,0 km/h (0 Bft) 97,87 %
02.08.2020 06:28 19,0 C 17,8 C 17,8 C 82 % 1014,5 hPa 0,0 l/m 0 min 0 min 10 W/m 0,0 km/h (0 Bft) 95,74 %
02.08.2020 06:30 19,0 C 17,8 C 17,8 C 82 % 1014,5 hPa 0,0 l/m 0 min 0 min 11 W/m 0,0 km/h (0 Bft) 97,87 %
02.08.2020 06:32 19,0 C 17,8 C 17,8 C 82 % 1014,5 hPa 0,0 l/m 0 min 0 min 11 W/m 3,2 km/h (1 Bft) 97,87 %
02.08.2020 06:34 19,0 C 17,8 C 17,8 C 82 % 1014,5 hPa 0,0 l/m 0 min 0 min 11 W/m 3,2 km/h (1 Bft) 97,87 %
02.08.2020 06:36 19,0 C 17,8 C 17,8 C 82 % 1014,5 hPa 0,0 l/m 0 min 0 min 11 W/m 0,0 km/h (0 Bft) 95,65 %
02.08.2020 06:38 18,9 C 17,8 C 17,8 C 82 % 1014,5 hPa 0,0 l/m 0 min 0 min 12 W/m 0,0 km/h (0 Bft) 93,62 %
02.08.2020 06:40 18,9 C 17,8 C 17,8 C 81 % 1014,5 hPa 0,0 l/m 0 min 0 min 12 W/m 3,2 km/h (1 Bft) 97,87 %
02.08.2020 06:42 18,9 C 17,8 C 17,8 C 82 % 1014,5 hPa 0,0 l/m 0 min 0 min 12 W/m 0,0 km/h (0 Bft) 97,87 %
02.08.2020 06:44 18,9 C 17,8 C 17,8 C 82 % 1014,5 hPa 0,0 l/m 0 min 0 min 13 W/m 3,2 km/h (1 Bft) 97,87 %
02.08.2020 06:46 18,9 C 17,8 C 17,8 C 82 % 1014,5 hPa 0,0 l/m 0 min 0 min 14 W/m 0,0 km/h (0 Bft) 95,74 %
02.08.2020 06:48 18,9 C 17,8 C 17,8 C 82 % 1014,5 hPa 0,0 l/m 0 min 0 min 14 W/m 3,2 km/h (1 Bft) 97,83 %
02.08.2020 06:50 18,9 C 17,8 C 17,8 C 82 % 1014,5 hPa 0,0 l/m 0 min 0 min 14 W/m 0,0 km/h (0 Bft) 97,87 %
02.08.2020 06:52 18,9 C 17,8 C 17,8 C 82 % 1014,5 hPa 0,0 l/m 0 min 0 min 15 W/m 0,0 km/h (0 Bft) 97,87 %
02.08.2020 06:54 18,9 C 17,8 C 17,8 C 82 % 1014,5 hPa 0,0 l/m 0 min 0 min 16 W/m 0,0 km/h (0 Bft) 95,74 %
02.08.2020 06:56 18,9 C 17,8 C 17,2 C 82 % 1014,5 hPa 0,0 l/m 0 min 0 min 17 W/m 0,0 km/h (0 Bft) 97,87 %
02.08.2020 06:58 18,9 C 17,2 C 17,2 C 82 % 1014,5 hPa 0,0 l/m 0 min 0 min 18 W/m 0,0 km/h (0 Bft) 95,74 %
02.08.2020 07:00 18,9 C 17,2 C 17,2 C 82 % 1014,5 hPa 0,0 l/m 0 min 0 min 19 W/m 0,0 km/h (0 Bft) 95,65 %
02.08.2020 07:02 18,8 C 17,2 C 17,2 C 82 % 1014,4 hPa 0,0 l/m 0 min 0 min 20 W/m 3,2 km/h (1 Bft) 97,87 %
02.08.2020 07:04 18,8 C 17,2 C 17,2 C 82 % 1014,5 hPa 0,0 l/m 0 min 0 min 22 W/m 0,0 km/h (0 Bft) 97,87 %
02.08.2020 07:06 18,8 C 17,2 C 17,2 C 82 % 1014,5 hPa 0,0 l/m 0 min 0 min 24 W/m 0,0 km/h (0 Bft) 95,74 %
02.08.2020 07:08 18,8 C 17,2 C 17,2 C 82 % 1014,5 hPa 0,0 l/m 0 min 0 min 26 W/m 3,2 km/h (1 Bft) 97,87 %
02.08.2020 07:10 18,8 C 17,2 C 17,2 C 82 % 1014,5 hPa 0,0 l/m 0 min 0 min 28 W/m 3,2 km/h (1 Bft) 97,87 %
02.08.2020 07:12 18,8 C 17,2 C 17,2 C 82 % 1014,5 hPa 0,0 l/m 0 min 0 min 28 W/m 0,0 km/h (0 Bft) 97,83 %
02.08.2020 07:14 18,8 C 17,2 C 17,2 C 82 % 1014,5 hPa 0,0 l/m 0 min 0 min 28 W/m 3,2 km/h (1 Bft) 97,87 %
02.08.2020 07:16 18,7 C 17,2 C 17,2 C 82 % 1014,6 hPa 0,0 l/m 0 min 0 min 28 W/m 3,2 km/h (1 Bft) 93,62 %
02.08.2020 07:18 18,7 C 17,2 C 17,2 C 82 % 1014,6 hPa 0,0 l/m 0 min 0 min 28 W/m 3,2 km/h (1 Bft) 97,87 %
02.08.2020 07:20 18,7 C 17,2 C 17,2 C 82 % 1014,6 hPa 0,0 l/m 0 min 0 min 29 W/m 3,2 km/h (1 Bft) 97,87 %
02.08.2020 07:22 18,7 C 17,2 C 17,2 C 82 % 1014,7 hPa 0,0 l/m 0 min 0 min 32 W/m 6,4 km/h (2 Bft) 97,87 %
02.08.2020 07:24 18,7 C 17,2 C 17,2 C 83 % 1014,7 hPa 0,0 l/m 0 min 0 min 33 W/m 3,2 km/h (1 Bft) 95,65 %
02.08.2020 07:26 18,7 C 17,2 C 17,2 C 83 % 1014,7 hPa 0,0 l/m 0 min 0 min 34 W/m 3,2 km/h (1 Bft) 97,87 %
02.08.2020 07:28 18,6 C 17,8 C 17,2 C 83 % 1014,7 hPa 0,0 l/m 0 min 0 min 36 W/m 3,2 km/h (1 Bft) 97,87 %
02.08.2020 07:30 18,6 C 17,8 C 17,2 C 83 % 1014,7 hPa 0,0 l/m 0 min 0 min 37 W/m 3,2 km/h (1 Bft) 93,62 %
02.08.2020 07:32 18,6 C 17,8 C 17,2 C 83 % 1014,6 hPa 0,0 l/m 0 min 0 min 38 W/m 6,4 km/h (2 Bft) 95,74 %
02.08.2020 07:34 18,6 C 17,8 C 17,2 C 83 % 1014,6 hPa 0,0 l/m 0 min 0 min 41 W/m 3,2 km/h (1 Bft) 95,65 %
02.08.2020 07:36 18,6 C 17,8 C 17,8 C 83 % 1014,6 hPa 0,0 l/m 0 min 0 min 45 W/m 3,2 km/h (1 Bft) 95,74 %
02.08.2020 07:38 18,6 C 17,8 C 17,8 C 83 % 1014,6 hPa 0,0 l/m 0 min 0 min 49 W/m 3,2 km/h (1 Bft) 95,74 %
02.08.2020 07:40 18,6 C 17,8 C 17,8 C 83 % 1014,6 hPa 0,0 l/m 0 min 0 min 54 W/m 6,4 km/h (2 Bft) 97,87 %
02.08.2020 07:42 18,5 C 17,8 C 17,8 C 83 % 1014,6 hPa 0,0 l/m 0 min 0 min 59 W/m 6,4 km/h (2 Bft) 95,74 %
02.08.2020 07:44 18,5 C 17,8 C 17,8 C 83 % 1014,6 hPa 0,0 l/m 0 min 0 min 62 W/m 6,4 km/h (2 Bft) 97,87 %
02.08.2020 07:46 18,5 C 17,8 C 17,8 C 83 % 1014,6 hPa 0,0 l/m 0 min 0 min 64 W/m 9,7 km/h (2 Bft) 97,83 %
02.08.2020 07:48 18,5 C 18,3 C 17,8 C 83 % 1014,6 hPa 0,0 l/m 0 min 0 min 65 W/m 3,2 km/h (1 Bft) 95,74 %
02.08.2020 07:50 18,5 C 18,3 C 17,8 C 84 % 1014,6 hPa 0,0 l/m 0 min 0 min 68 W/m 6,4 km/h (2 Bft) 97,87 %
02.08.2020 07:52 18,5 C 18,3 C 17,8 C 84 % 1014,6 hPa 0,0 l/m 0 min 0 min 71 W/m 3,2 km/h (1 Bft) 95,74 %
02.08.2020 07:54 18,5 C 18,3 C 18,3 C 84 % 1014,6 hPa 0,0 l/m 0 min 0 min 75 W/m 6,4 km/h (2 Bft) 97,87 %
02.08.2020 07:56 18,5 C 18,3 C 18,3 C 84 % 1014,6 hPa 0,0 l/m 0 min 0 min 78 W/m 6,4 km/h (2 Bft) 95,74 %
02.08.2020 07:58 18,5 C 18,3 C 18,3 C 84 % 1014,6 hPa 0,0 l/m 0 min 0 min 80 W/m 6,4 km/h (2 Bft) 95,65 %
02.08.2020 08:00 18,5 C 18,3 C 18,3 C 84 % 1014,6 hPa 0,0 l/m 0 min 0 min 81 W/m 9,7 km/h (2 Bft) 95,74 %
02.08.2020 08:02 18,5 C 18,3 C 18,3 C 84 % 1014,6 hPa 0,0 l/m 0 min 0 min 83 W/m 6,4 km/h (2 Bft) 93,62 %
02.08.2020 08:04 18,5 C 18,3 C 18,3 C 84 % 1014,6 hPa 0,0 l/m 0 min 0 min 85 W/m 3,2 km/h (1 Bft) 95,74 %
02.08.2020 08:06 18,5 C 18,3 C 18,3 C 84 % 1014,6 hPa 0,0 l/m 0 min 0 min 87 W/m 6,4 km/h (2 Bft) 97,87 %
02.08.2020 08:08 18,6 C 18,3 C 18,3 C 84 % 1014,6 hPa 0,0 l/m 0 min 0 min 90 W/m 3,2 km/h (1 Bft) 97,87 %
02.08.2020 08:10 18,6 C 18,9 C 18,3 C 84 % 1014,7 hPa 0,0 l/m 0 min 0 min 91 W/m 3,2 km/h (1 Bft) 97,83 %
02.08.2020 08:12 18,6 C 18,9 C 18,3 C 84 % 1014,6 hPa 0,0 l/m 0 min 0 min 93 W/m 6,4 km/h (2 Bft) 97,87 %
02.08.2020 08:14 18,6 C 18,9 C 18,3 C 84 % 1014,6 hPa 0,0 l/m 0 min 0 min 95 W/m 6,4 km/h (2 Bft) 100,00 %
02.08.2020 08:16 18,6 C 18,9 C 18,3 C 83 % 1014,7 hPa 0,0 l/m 0 min 0 min 96 W/m 9,7 km/h (2 Bft) 100,00 %
02.08.2020 08:18 18,6 C 18,9 C 18,3 C 83 % 1014,6 hPa 0,0 l/m 0 min 0 min 101 W/m 6,4 km/h (2 Bft) 100,00 %
02.08.2020 08:20 18,6 C 18,9 C 18,3 C 83 % 1014,6 hPa 0,0 l/m 0 min 0 min 110 W/m 16,1 km/h (3 Bft) 97,87 %
02.08.2020 08:22 18,6 C 18,9 C 18,3 C 83 % 1014,7 hPa 0,0 l/m 0 min 0 min 116 W/m 3,2 km/h (1 Bft) 97,83 %
02.08.2020 08:24 18,7 C 18,9 C 18,3 C 83 % 1014,7 hPa 0,0 l/m 0 min 0 min 123 W/m 6,4 km/h (2 Bft) 100,00 %
02.08.2020 08:26 18,7 C 19,4 C 18,9 C 83 % 1014,7 hPa 0,0 l/m 0 min 0 min 129 W/m 6,4 km/h (2 Bft) 97,87 %
02.08.2020 08:28 18,7 C 19,4 C 18,9 C 83 % 1014,7 hPa 0,0 l/m 0 min 0 min 132 W/m 6,4 km/h (2 Bft) 95,74 %
02.08.2020 08:30 18,7 C 19,4 C 18,9 C 82 % 1014,7 hPa 0,0 l/m 0 min 0 min 132 W/m 6,4 km/h (2 Bft) 97,87 %
02.08.2020 08:32 18,7 C 19,4 C 18,9 C 81 % 1014,7 hPa 0,0 l/m 0 min 0 min 121 W/m 9,7 km/h (2 Bft) 95,74 %
02.08.2020 08:34 18,8 C 18,9 C 18,9 C 81 % 1014,8 hPa 0,0 l/m 0 min 0 min 119 W/m 12,9 km/h (3 Bft) 95,65 %
02.08.2020 08:36 18,8 C 18,9 C 18,9 C 81 % 1014,7 hPa 0,0 l/m 0 min 0 min 127 W/m 6,4 km/h (2 Bft) 97,87 %
02.08.2020 08:38 18,8 C 18,9 C 18,9 C 81 % 1014,7 hPa 0,0 l/m 0 min 0 min 135 W/m 12,9 km/h (3 Bft) 100,00 %
02.08.2020 08:40 18,8 C 19,4 C 18,9 C 80 % 1014,7 hPa 0,0 l/m 0 min 0 min 146 W/m 6,4 km/h (2 Bft) 100,00 %
02.08.2020 08:42 18,9 C 19,4 C 18,9 C 80 % 1014,7 hPa 0,0 l/m 0 min 0 min 156 W/m 6,4 km/h (2 Bft) 100,00 %
02.08.2020 08:44 18,9 C 19,4 C 18,9 C 81 % 1014,7 hPa 0,0 l/m 0 min 0 min 151 W/m 6,4 km/h (2 Bft) 97,83 %
02.08.2020 08:46 18,9 C 19,4 C 19,4 C 81 % 1014,7 hPa 0,0 l/m 0 min 0 min 151 W/m 6,4 km/h (2 Bft) 97,87 %
02.08.2020 08:48 19,0 C 20,0 C 19,4 C 81 % 1014,6 hPa 0,0 l/m 0 min 0 min 151 W/m 3,2 km/h (1 Bft) 97,87 %
02.08.2020 08:50 19,1 C 20,0 C 19,4 C 81 % 1014,7 hPa 0,0 l/m 0 min 0 min 152 W/m 9,7 km/h (2 Bft) 97,87 %
02.08.2020 08:52 19,1 C 20,6 C 19,4 C 81 % 1014,7 hPa 0,0 l/m 0 min 0 min 161 W/m 3,2 km/h (1 Bft) 95,74 %
02.08.2020 08:54 19,2 C 20,6 C 19,4 C 81 % 1014,6 hPa 0,0 l/m 0 min 0 min 162 W/m 6,4 km/h (2 Bft) 97,87 %
02.08.2020 08:56 19,2 C 20,0 C 19,4 C 81 % 1014,7 hPa 0,0 l/m 0 min 0 min 139 W/m 6,4 km/h (2 Bft) 95,65 %
02.08.2020 08:58 19,2 C 20,0 C 19,4 C 81 % 1014,7 hPa 0,0 l/m 0 min 0 min 144 W/m 6,4 km/h (2 Bft) 97,87 %
02.08.2020 09:00 19,3 C 20,6 C 20,0 C 81 % 1014,7 hPa 0,0 l/m 0 min 0 min 177 W/m 3,2 km/h (1 Bft) 97,87 %
02.08.2020 09:02 19,3 C 20,0 C 20,0 C 81 % 1014,7 hPa 0,0 l/m 0 min 0 min 144 W/m 16,1 km/h (3 Bft) 97,87 %
02.08.2020 09:04 19,4 C 20,0 C 20,0 C 80 % 1014,7 hPa 0,0 l/m 0 min 0 min 165 W/m 6,4 km/h (2 Bft) 93,62 %
02.08.2020 09:06 19,4 C 20,0 C 20,0 C 80 % 1014,7 hPa 0,0 l/m 0 min 0 min 160 W/m 12,9 km/h (3 Bft) 97,87 %
02.08.2020 09:08 19,4 C 20,6 C 20,0 C 79 % 1014,7 hPa 0,0 l/m 0 min 0 min 181 W/m 9,7 km/h (2 Bft) 97,83 %
02.08.2020 09:10 19,4 C 20,0 C 20,0 C 79 % 1014,7 hPa 0,0 l/m 0 min 0 min 158 W/m 6,4 km/h (2 Bft) 97,87 %
02.08.2020 09:12 19,5 C 20,0 C 20,0 C 79 % 1014,8 hPa 0,0 l/m 0 min 0 min 140 W/m 6,4 km/h (2 Bft) 97,87 %
02.08.2020 09:14 19,5 C 20,0 C 20,0 C 79 % 1014,8 hPa 0,0 l/m 0 min 0 min 137 W/m 9,7 km/h (2 Bft) 95,74 %
02.08.2020 09:16 19,6 C 20,0 C 20,0 C 79 % 1014,9 hPa 0,0 l/m 0 min 0 min 133 W/m 12,9 km/h (3 Bft) 97,87 %
02.08.2020 09:18 19,6 C 20,0 C 19,4 C 79 % 1014,9 hPa 0,0 l/m 0 min 0 min 134 W/m 6,4 km/h (2 Bft) 97,87 %
02.08.2020 09:20 19,6 C 19,4 C 19,4 C 79 % 1014,9 hPa 0,0 l/m 0 min 0 min 140 W/m 6,4 km/h (2 Bft) 97,83 %
02.08.2020 09:22 19,6 C 19,4 C 19,4 C 78 % 1014,9 hPa 0,0 l/m 0 min 0 min 144 W/m 9,7 km/h (2 Bft) 95,74 %
02.08.2020 09:24 19,6 C 19,4 C 19,4 C 78 % 1014,9 hPa 0,0 l/m 0 min 0 min 142 W/m 12,9 km/h (3 Bft) 97,87 %
02.08.2020 09:26 19,6 C 19,4 C 19,4 C 78 % 1015,0 hPa 0,0 l/m 0 min 0 min 145 W/m 9,7 km/h (2 Bft) 97,87 %
02.08.2020 09:28 19,6 C 19,4 C 19,4 C 78 % 1015,0 hPa 0,0 l/m 0 min 0 min 164 W/m 16,1 km/h (3 Bft) 95,74 %
02.08.2020 09:30 19,6 C 19,4 C 19,4 C 78 % 1015,0 hPa 0,0 l/m 0 min 0 min 178 W/m 12,9 km/h (3 Bft) 97,83 %
02.08.2020 09:32 19,6 C 20,0 C 20,0 C 78 % 1015,0 hPa 0,0 l/m 0 min 0 min 198 W/m 12,9 km/h (3 Bft) 97,87 %
02.08.2020 09:34 19,6 C 20,6 C 20,6 C 78 % 1015,0 hPa 0,0 l/m 0 min 0 min 248 W/m 12,9 km/h (3 Bft) 97,87 %
02.08.2020 09:36 19,6 C 21,1 C 21,7 C 78 % 1015,0 hPa 0,0 l/m 2 min 0 min 287 W/m 9,7 km/h (2 Bft) 91,49 %
02.08.2020 09:38 19,6 C 20,6 C 21,1 C 78 % 1015,0 hPa 0,0 l/m 0 min 0 min 213 W/m 16,1 km/h (3 Bft) 97,87 %
02.08.2020 09:40 19,6 C 20,6 C 20,6 C 78 % 1015,0 hPa 0,0 l/m 0 min 0 min 190 W/m 12,9 km/h (3 Bft) 95,74 %
02.08.2020 09:42 19,6 C 20,6 C 20,6 C 78 % 1015,1 hPa 0,0 l/m 0 min 0 min 185 W/m 9,7 km/h (2 Bft) 100,00 %
02.08.2020 09:44 19,6 C 20,6 C 20,6 C 78 % 1015,1 hPa 0,0 l/m 0 min 0 min 193 W/m 9,7 km/h (2 Bft) 100,00 %
02.08.2020 09:46 19,7 C 20,6 C 20,6 C 78 % 1015,1 hPa 0,0 l/m 0 min 0 min 207 W/m 6,4 km/h (2 Bft) 100,00 %
02.08.2020 09:48 19,7 C 20,6 C 20,6 C 79 % 1015,1 hPa 0,0 l/m 0 min 0 min 216 W/m 6,4 km/h (2 Bft) 100,00 %
02.08.2020 09:50 19,7 C 20,6 C 20,6 C 78 % 1015,1 hPa 0,0 l/m 0 min 0 min 219 W/m 6,4 km/h (2 Bft) 100,00 %
02.08.2020 09:52 19,7 C 20,6 C 20,6 C 78 % 1015,2 hPa 0,0 l/m 0 min 0 min 229 W/m 6,4 km/h (2 Bft) 97,87 %
02.08.2020 09:54 19,7 C 20,6 C 20,6 C 79 % 1015,2 hPa 0,0 l/m 0 min 0 min 216 W/m 6,4 km/h (2 Bft) 100,00 %
02.08.2020 09:56 19,8 C 20,6 C 20,6 C 78 % 1015,1 hPa 0,0 l/m 0 min 0 min 224 W/m 6,4 km/h (2 Bft) 100,00 %
02.08.2020 09:58 19,8 C 21,1 C 20,6 C 79 % 1015,1 hPa 0,0 l/m 0 min 0 min 232 W/m 6,4 km/h (2 Bft) 95,74 %
02.08.2020 10:00 19,8 C 21,1 C 21,1 C 79 % 1015,1 hPa 0,0 l/m 0 min 0 min 212 W/m 6,4 km/h (2 Bft) 95,74 %
02.08.2020 10:02 19,9 C 21,1 C 21,1 C 79 % 1015,1 hPa 0,0 l/m 0 min 0 min 227 W/m 6,4 km/h (2 Bft) 95,74 %
02.08.2020 10:04 19,9 C 21,1 C 21,1 C 78 % 1015,1 hPa 0,0 l/m 0 min 0 min 248 W/m 6,4 km/h (2 Bft) 93,62 %
02.08.2020 10:06 19,9 C 21,7 C 21,7 C 78 % 1015,1 hPa 0,0 l/m 0 min 0 min 244 W/m 12,9 km/h (3 Bft) 93,48 %
02.08.2020 10:08 20,0 C 21,1 C 21,7 C 78 % 1015,1 hPa 0,0 l/m 0 min 0 min 266 W/m 19,3 km/h (3 Bft) 95,74 %
02.08.2020 10:10 20,0 C 21,7 C 21,7 C 78 % 1015,1 hPa 0,0 l/m 2 min 0 min 300 W/m 6,4 km/h (2 Bft) 95,74 %
02.08.2020 10:12 20,1 C 22,2 C 22,2 C 78 % 1015,2 hPa 0,0 l/m 2 min 0 min 341 W/m 9,7 km/h (2 Bft) 95,74 %
02.08.2020 10:14 20,1 C 22,2 C 22,8 C 78 % 1015,1 hPa 0,0 l/m 2 min 0 min 312 W/m 6,4 km/h (2 Bft) 93,62 %
02.08.2020 10:16 20,2 C 22,2 C 22,2 C 78 % 1015,1 hPa 0,0 l/m 0 min 0 min 264 W/m 12,9 km/h (3 Bft) 95,74 %
02.08.2020 10:18 20,2 C 21,7 C 21,7 C 77 % 1015,1 hPa 0,0 l/m 0 min 0 min 257 W/m 16,1 km/h (3 Bft) 93,48 %
02.08.2020 10:20 20,2 C 21,7 C 21,7 C 77 % 1015,1 hPa 0,0 l/m 2 min 0 min 300 W/m 16,1 km/h (3 Bft) 95,74 %
02.08.2020 10:22 20,2 C 21,7 C 21,7 C 76 % 1015,1 hPa 0,0 l/m 0 min 0 min 274 W/m 12,9 km/h (3 Bft) 95,74 %
02.08.2020 10:24 20,3 C 21,1 C 21,7 C 76 % 1015,2 hPa 0,0 l/m 0 min 0 min 276 W/m 16,1 km/h (3 Bft) 93,62 %
02.08.2020 10:26 20,3 C 21,1 C 21,7 C 76 % 1015,2 hPa 0,0 l/m 2 min 0 min 351 W/m 22,5 km/h (4 Bft) 95,74 %
02.08.2020 10:28 20,3 C 22,2 C 22,2 C 77 % 1015,1 hPa 0,0 l/m 2 min 0 min 374 W/m 12,9 km/h (3 Bft) 95,74 %
02.08.2020 10:30 20,3 C 22,2 C 22,8 C 76 % 1015,1 hPa 0,0 l/m 2 min 0 min 430 W/m 19,3 km/h (3 Bft) 95,65 %
02.08.2020 10:32 20,4 C 22,2 C 22,8 C 76 % 1015,1 hPa 0,0 l/m 2 min 0 min 439 W/m 22,5 km/h (4 Bft) 95,74 %
02.08.2020 10:34 20,4 C 22,8 C 23,3 C 76 % 1015,1 hPa 0,0 l/m 2 min 0 min 419 W/m 16,1 km/h (3 Bft) 95,74 %
02.08.2020 10:36 20,4 C 22,8 C 23,3 C 76 % 1015,1 hPa 0,0 l/m 2 min 0 min 401 W/m 12,9 km/h (3 Bft) 95,74 %
02.08.2020 10:38 20,5 C 22,8 C 23,3 C 76 % 1015,1 hPa 0,0 l/m 2 min 0 min 440 W/m 12,9 km/h (3 Bft) 95,74 %
02.08.2020 10:40 20,6 C 23,3 C 23,9 C 76 % 1015,0 hPa 0,0 l/m 2 min 0 min 461 W/m 9,7 km/h (2 Bft) 95,65 %
02.08.2020 10:42 20,6 C 23,3 C 23,9 C 76 % 1015,0 hPa 0,0 l/m 2 min 0 min 459 W/m 9,7 km/h (2 Bft) 93,62 %
02.08.2020 10:44 20,7 C 23,9 C 24,4 C 77 % 1015,1 hPa 0,0 l/m 2 min 0 min 466 W/m 16,1 km/h (3 Bft) 95,74 %
02.08.2020 10:46 20,8 C 24,4 C 25,0 C 77 % 1015,1 hPa 0,0 l/m 2 min 0 min 438 W/m 12,9 km/h (3 Bft) 93,62 %
02.08.2020 10:48 20,9 C 25,0 C 25,6 C 77 % 1015,1 hPa 0,0 l/m 2 min 0 min 425 W/m 12,9 km/h (3 Bft) 97,87 %
02.08.2020 10:50 21,0 C 25,6 C 26,1 C 77 % 1015,2 hPa 0,0 l/m 2 min 0 min 553 W/m 12,9 km/h (3 Bft) 97,87 %
02.08.2020 10:52 21,2 C 26,1 C 27,2 C 77 % 1015,1 hPa 0,0 l/m 2 min 0 min 657 W/m 9,7 km/h (2 Bft) 97,83 %
02.08.2020 10:54 21,4 C 26,1 C 27,2 C 77 % 1015,1 hPa 0,0 l/m 2 min 0 min 657 W/m 6,4 km/h (2 Bft) 97,87 %
02.08.2020 10:56 21,5 C 25,6 C 26,1 C 76 % 1015,1 hPa 0,0 l/m 2 min 0 min 614 W/m 16,1 km/h (3 Bft) 95,74 %
02.08.2020 10:58 21,6 C 24,4 C 25,0 C 75 % 1015,2 hPa 0,0 l/m 2 min 0 min 441 W/m 12,9 km/h (3 Bft) 100,00 %
02.08.2020 11:00 21,7 C 23,9 C 24,4 C 75 % 1015,1 hPa 0,0 l/m 2 min 0 min 355 W/m 6,4 km/h (2 Bft) 97,87 %
02.08.2020 11:02 21,7 C 22,8 C 23,3 C 74 % 1015,2 hPa 0,0 l/m 0 min 0 min 293 W/m 19,3 km/h (3 Bft) 100,00 %
02.08.2020 11:04 21,7 C 23,9 C 23,3 C 74 % 1015,2 hPa 0,0 l/m 2 min 0 min 521 W/m 19,3 km/h (3 Bft) 100,00 %
02.08.2020 11:06 21,7 C 25,0 C 23,3 C 74 % 1015,2 hPa 0,0 l/m 2 min 0 min 579 W/m 16,1 km/h (3 Bft) 97,87 %
02.08.2020 11:08 21,8 C 24,4 C 23,3 C 75 % 1015,1 hPa 0,0 l/m 2 min 0 min 568 W/m 16,1 km/h (3 Bft) 100,00 %
02.08.2020 11:10 21,8 C 24,4 C 22,8 C 74 % 1015,1 hPa 0,0 l/m 2 min 0 min 571 W/m 16,1 km/h (3 Bft) 100,00 %
02.08.2020 11:12 21,8 C 23,9 C 22,8 C 74 % 1015,1 hPa 0,0 l/m 2 min 0 min 696 W/m 12,9 km/h (3 Bft) 100,00 %
02.08.2020 11:14 21,8 C 25,0 C 22,8 C 74 % 1015,1 hPa 0,0 l/m 2 min 0 min 759 W/m 12,9 km/h (3 Bft) 100,00 %
02.08.2020 11:16 21,8 C 25,0 C 23,3 C 74 % 1015,1 hPa 0,0 l/m 2 min 0 min 780 W/m 12,9 km/h (3 Bft) 100,00 %
02.08.2020 11:18 21,9 C 25,0 C 23,3 C 73 % 1015,1 hPa 0,0 l/m 2 min 0 min 751 W/m 12,9 km/h (3 Bft) 100,00 %
02.08.2020 11:20 21,9 C 26,1 C 23,3 C 74 % 1015,1 hPa 0,0 l/m 2 min 0 min 509 W/m 16,1 km/h (3 Bft) 100,00 %
02.08.2020 11:22 22,1 C 27,2 C 23,9 C 75 % 1015,1 hPa 0,0 l/m 2 min 0 min 714 W/m 9,7 km/h (2 Bft) 100,00 %
02.08.2020 11:24 22,2 C 26,1 C 23,9 C 75 % 1015,1 hPa 0,0 l/m 2 min 0 min 720 W/m 12,9 km/h (3 Bft) 97,87 %
02.08.2020 11:26 22,3 C 26,1 C 23,9 C 74 % 1015,1 hPa 0,0 l/m 2 min 0 min 721 W/m 9,7 km/h (2 Bft) 95,74 %
02.08.2020 11:28 22,4 C 25,6 C 23,9 C 74 % 1015,2 hPa 0,0 l/m 2 min 0 min 561 W/m 9,7 km/h (2 Bft) 100,00 %
02.08.2020 11:30 22,6 C 26,1 C 23,9 C 74 % 1015,0 hPa 0,0 l/m 2 min 0 min 406 W/m 9,7 km/h (2 Bft) 100,00 %
02.08.2020 11:32 22,6 C 25,6 C 23,9 C 74 % 1015,1 hPa 0,0 l/m 2 min 0 min 697 W/m 16,1 km/h (3 Bft) 100,00 %
02.08.2020 11:34 22,7 C 24,4 C 23,3 C 72 % 1015,1 hPa 0,0 l/m 2 min 0 min 485 W/m 19,3 km/h (3 Bft) 100,00 %
02.08.2020 11:36 22,7 C 25,0 C 23,3 C 73 % 1015,2 hPa 0,0 l/m 0 min 0 min 316 W/m 9,7 km/h (2 Bft) 100,00 %
02.08.2020 11:38 22,8 C 25,0 C 23,3 C 73 % 1015,1 hPa 0,0 l/m 2 min 0 min 388 W/m 16,1 km/h (3 Bft) 100,00 %
02.08.2020 11:40 22,8 C 23,9 C 23,3 C 72 % 1015,2 hPa 0,0 l/m 2 min 0 min 408 W/m 22,5 km/h (4 Bft) 97,83 %
02.08.2020 11:42 22,8 C 25,0 C 23,3 C 72 % 1015,1 hPa 0,0 l/m 2 min 0 min 416 W/m 12,9 km/h (3 Bft) 100,00 %
02.08.2020 11:44 22,8 C 25,6 C 23,9 C 73 % 1015,1 hPa 0,0 l/m 2 min 0 min 638 W/m 12,9 km/h (3 Bft) 97,87 %
02.08.2020 11:46 22,9 C 25,0 C 23,9 C 72 % 1015,2 hPa 0,0 l/m 2 min 0 min 557 W/m 22,5 km/h (4 Bft) 100,00 %
02.08.2020 11:48 22,9 C 23,9 C 23,3 C 71 % 1015,2 hPa 0,0 l/m 0 min 0 min 340 W/m 19,3 km/h (3 Bft) 100,00 %
02.08.2020 11:50 22,9 C 23,9 C 22,8 C 71 % 1015,1 hPa 0,0 l/m 0 min 0 min 347 W/m 12,9 km/h (3 Bft) 100,00 %
02.08.2020 11:52 22,9 C 23,3 C 22,8 C 72 % 1015,2 hPa 0,0 l/m 0 min 0 min 296 W/m 22,5 km/h (4 Bft) 100,00 %
02.08.2020 11:54 22,8 C 25,0 C 22,8 C 72 % 1015,1 hPa 0,0 l/m 0 min 0 min 311 W/m 12,9 km/h (3 Bft) 100,00 %
02.08.2020 11:56 22,9 C 25,0 C 23,3 C 72 % 1015,2 hPa 0,0 l/m 2 min 0 min 683 W/m 16,1 km/h (3 Bft) 100,00 %
02.08.2020 11:58 22,9 C 25,0 C 23,3 C 72 % 1015,1 hPa 0,0 l/m 2 min 0 min 801 W/m 9,7 km/h (2 Bft) 97,87 %
02.08.2020 12:00 22,9 C 25,0 C 23,3 C 72 % 1015,2 hPa 0,0 l/m 2 min 0 min 401 W/m 19,3 km/h (3 Bft) 100,00 %
02.08.2020 12:02 23,0 C 26,7 C 23,9 C 73 % 1015,1 hPa 0,0 l/m 2 min 0 min 401 W/m 9,7 km/h (2 Bft) 100,00 %
02.08.2020 12:04 23,1 C 26,1 C 23,9 C 72 % 1015,1 hPa 0,0 l/m 2 min 0 min 384 W/m 6,4 km/h (2 Bft) 97,87 %
02.08.2020 12:08 23,2 C 24,4 C 23,3 C 72 % 1015,1 hPa 0,0 l/m 0 min 0 min 269 W/m 12,9 km/h (3 Bft) 98,94 %
02.08.2020 12:10 23,2 C 23,9 C 23,3 C 72 % 1015,2 hPa 0,0 l/m 0 min 0 min 245 W/m 9,7 km/h (2 Bft) 97,87 %
02.08.2020 12:12 23,2 C 23,3 C 22,8 C 72 % 1015,2 hPa 0,0 l/m 0 min 0 min 238 W/m 9,7 km/h (2 Bft) 97,87 %
02.08.2020 12:14 23,2 C 23,3 C 22,8 C 72 % 1015,2 hPa 0,0 l/m 0 min 0 min 217 W/m 12,9 km/h (3 Bft) 100,00 %
02.08.2020 12:16 23,2 C 23,3 C 22,8 C 72 % 1015,3 hPa 0,0 l/m 0 min 0 min 234 W/m 9,7 km/h (2 Bft) 100,00 %
02.08.2020 12:18 23,1 C 23,9 C 22,8 C 72 % 1015,3 hPa 0,0 l/m 0 min 0 min 288 W/m 6,4 km/h (2 Bft) 95,74 %
02.08.2020 12:20 23,1 C 23,9 C 22,8 C 72 % 1015,2 hPa 0,0 l/m 0 min 0 min 297 W/m 9,7 km/h (2 Bft) 100,00 %
02.08.2020 12:22 23,1 C 23,9 C 22,8 C 72 % 1015,2 hPa 0,0 l/m 0 min 0 min 305 W/m 12,9 km/h (3 Bft) 100,00 %
02.08.2020 12:24 23,1 C 25,0 C 22,8 C 72 % 1015,2 hPa 0,0 l/m 0 min 0 min 371 W/m 9,7 km/h (2 Bft) 100,00 %
02.08.2020 12:26 23,1 C 26,7 C 23,3 C 73 % 1015,2 hPa 0,0 l/m 2 min 0 min 721 W/m 9,7 km/h (2 Bft) 97,83 %
02.08.2020 12:28 23,2 C 27,2 C 23,9 C 73 % 1015,2 hPa 0,0 l/m 2 min 0 min 823 W/m 9,7 km/h (2 Bft) 97,87 %
02.08.2020 12:30 23,3 C 26,7 C 23,9 C 73 % 1015,2 hPa 0,0 l/m 2 min 0 min 753 W/m 12,9 km/h (3 Bft) 97,87 %
02.08.2020 12:32 23,4 C 26,1 C 23,9 C 73 % 1015,2 hPa 0,0 l/m 0 min 0 min 359 W/m 9,7 km/h (2 Bft) 97,87 %
02.08.2020 12:34 23,4 C 25,0 C 23,3 C 72 % 1015,2 hPa 0,0 l/m 0 min 0 min 286 W/m 9,7 km/h (2 Bft) 95,74 %
02.08.2020 12:36 23,4 C 24,4 C 23,3 C 72 % 1015,2 hPa 0,0 l/m 0 min 0 min 297 W/m 19,3 km/h (3 Bft) 95,74 %
02.08.2020 12:38 23,4 C 23,9 C 22,8 C 71 % 1015,3 hPa 0,0 l/m 0 min 0 min 274 W/m 16,1 km/h (3 Bft) 95,65 %
02.08.2020 12:40 23,4 C 23,3 C 22,8 C 72 % 1015,3 hPa 0,0 l/m 0 min 0 min 224 W/m 12,9 km/h (3 Bft) 95,74 %
02.08.2020 12:42 23,3 C 22,8 C 22,8 C 71 % 1015,3 hPa 0,0 l/m 0 min 0 min 179 W/m 12,9 km/h (3 Bft) 93,62 %
02.08.2020 12:44 23,3 C 22,8 C 22,2 C 72 % 1015,3 hPa 0,0 l/m 0 min 0 min 197 W/m 9,7 km/h (2 Bft) 95,74 %
02.08.2020 12:46 23,2 C 22,2 C 22,2 C 72 % 1015,3 hPa 0,0 l/m 0 min 0 min 200 W/m 9,7 km/h (2 Bft) 93,62 %
02.08.2020 12:48 23,1 C 22,2 C 22,2 C 72 % 1015,3 hPa 0,0 l/m 0 min 0 min 220 W/m 19,3 km/h (3 Bft) 95,74 %
02.08.2020 12:50 22,9 C 22,2 C 22,2 C 72 % 1015,3 hPa 0,0 l/m 0 min 0 min 251 W/m 12,9 km/h (3 Bft) 95,65 %
02.08.2020 12:52 22,9 C 22,2 C 21,7 C 72 % 1015,3 hPa 0,0 l/m 0 min 0 min 196 W/m 12,9 km/h (3 Bft) 93,62 %
02.08.2020 12:54 22,8 C 21,7 C 21,7 C 73 % 1015,3 hPa 0,0 l/m 0 min 0 min 127 W/m 16,1 km/h (3 Bft) 95,74 %
02.08.2020 12:56 22,7 C 21,1 C 21,7 C 73 % 1015,3 hPa 0,0 l/m 0 min 0 min 107 W/m 9,7 km/h (2 Bft) 95,74 %
02.08.2020 12:58 22,6 C 20,6 C 21,1 C 73 % 1015,3 hPa 0,0 l/m 0 min 0 min 104 W/m 9,7 km/h (2 Bft) 95,74 %
02.08.2020 13:00 22,5 C 20,6 C 21,1 C 74 % 1015,3 hPa 0,0 l/m 0 min 0 min 117 W/m 9,7 km/h (2 Bft) 91,30 %
02.08.2020 13:02 22,4 C 21,1 C 21,1 C 74 % 1015,3 hPa 0,0 l/m 0 min 0 min 144 W/m 9,7 km/h (2 Bft) 91,49 %
02.08.2020 13:04 22,3 C 21,1 C 21,1 C 74 % 1015,3 hPa 0,0 l/m 0 min 0 min 177 W/m 12,9 km/h (3 Bft) 91,49 %
02.08.2020 13:06 22,2 C 21,1 C 21,1 C 75 % 1015,4 hPa 0,0 l/m 0 min 0 min 202 W/m 9,7 km/h (2 Bft) 93,62 %
02.08.2020 13:08 22,1 C 21,7 C 21,1 C 75 % 1015,3 hPa 0,0 l/m 0 min 0 min 285 W/m 19,3 km/h (3 Bft) 91,49 %
02.08.2020 13:10 22,1 C 22,8 C 21,7 C 76 % 1015,3 hPa 0,0 l/m 0 min 0 min 347 W/m 9,7 km/h (2 Bft) 91,49 %
02.08.2020 13:12 22,1 C 22,8 C 21,7 C 76 % 1015,3 hPa 0,0 l/m 0 min 0 min 351 W/m 12,9 km/h (3 Bft) 91,30 %
02.08.2020 13:14 22,1 C 23,3 C 21,7 C 76 % 1015,3 hPa 0,0 l/m 0 min 0 min 365 W/m 9,7 km/h (2 Bft) 93,62 %
02.08.2020 13:16 22,1 C 23,9 C 22,2 C 77 % 1015,3 hPa 0,0 l/m 2 min 0 min 457 W/m 12,9 km/h (3 Bft) 93,62 %
02.08.2020 13:18 22,1 C 23,9 C 22,2 C 76 % 1015,3 hPa 0,0 l/m 0 min 0 min 353 W/m 16,1 km/h (3 Bft) 95,74 %
02.08.2020 13:20 22,1 C 23,3 C 22,2 C 77 % 1015,3 hPa 0,0 l/m 0 min 0 min 354 W/m 12,9 km/h (3 Bft) 95,74 %
02.08.2020 13:22 22,2 C 23,3 C 22,2 C 76 % 1015,3 hPa 0,0 l/m 0 min 0 min 286 W/m 12,9 km/h (3 Bft) 97,87 %
02.08.2020 13:24 22,2 C 22,8 C 22,2 C 76 % 1015,3 hPa 0,0 l/m 0 min 0 min 241 W/m 12,9 km/h (3 Bft) 89,13 %
02.08.2020 13:26 22,2 C 22,2 C 22,2 C 76 % 1015,4 hPa 0,0 l/m 0 min 0 min 210 W/m 16,1 km/h (3 Bft) 93,62 %
02.08.2020 13:28 22,1 C 21,7 C 21,7 C 76 % 1015,4 hPa 0,0 l/m 0 min 0 min 194 W/m 9,7 km/h (2 Bft) 93,62 %
02.08.2020 13:30 22,1 C 21,7 C 21,7 C 76 % 1015,4 hPa 0,0 l/m 0 min 0 min 192 W/m 9,7 km/h (2 Bft) 97,87 %
02.08.2020 13:32 22,1 C 21,7 C 21,7 C 76 % 1015,4 hPa 0,0 l/m 0 min 0 min 195 W/m 9,7 km/h (2 Bft) 97,87 %
02.08.2020 13:34 22,0 C 21,7 C 21,7 C 76 % 1015,4 hPa 0,0 l/m 0 min 0 min 224 W/m 6,4 km/h (2 Bft) 97,87 %
02.08.2020 13:36 22,0 C 22,2 C 21,7 C 76 % 1015,4 hPa 0,0 l/m 0 min 0 min 262 W/m 9,7 km/h (2 Bft) 97,83 %
02.08.2020 13:38 22,0 C 22,2 C 21,7 C 77 % 1015,5 hPa 0,0 l/m 0 min 0 min 245 W/m 6,4 km/h (2 Bft) 97,87 %
02.08.2020 13:40 21,9 C 21,7 C 21,7 C 77 % 1015,4 hPa 0,0 l/m 0 min 0 min 211 W/m 9,7 km/h (2 Bft) 97,87 %
02.08.2020 13:42 21,9 C 21,7 C 21,7 C 77 % 1015,4 hPa 0,0 l/m 0 min 0 min 202 W/m 9,7 km/h (2 Bft) 97,87 %
02.08.2020 13:44 21,9 C 22,2 C 21,7 C 77 % 1015,4 hPa 0,0 l/m 0 min 0 min 239 W/m 9,7 km/h (2 Bft) 97,87 %
02.08.2020 13:46 21,9 C 22,8 C 21,7 C 77 % 1015,3 hPa 0,0 l/m 0 min 0 min 249 W/m 12,9 km/h (3 Bft) 95,74 %
02.08.2020 13:48 21,9 C 23,9 C 22,2 C 78 % 1015,3 hPa 0,0 l/m 0 min 0 min 394 W/m 9,7 km/h (2 Bft) 97,83 %
02.08.2020 13:50 22,0 C 25,0 C 22,8 C 78 % 1015,4 hPa 0,0 l/m 2 min 0 min 428 W/m 6,4 km/h (2 Bft) 95,74 %
02.08.2020 13:52 22,1 C 26,1 C 23,3 C 78 % 1015,3 hPa 0,0 l/m 2 min 0 min 605 W/m 12,9 km/h (3 Bft) 97,87 %
02.08.2020 13:54 22,2 C 27,8 C 23,9 C 78 % 1015,3 hPa 0,0 l/m 2 min 0 min 723 W/m 9,7 km/h (2 Bft) 97,87 %
02.08.2020 13:56 22,3 C 27,8 C 24,4 C 78 % 1015,3 hPa 0,0 l/m 2 min 0 min 939 W/m 9,7 km/h (2 Bft) 97,87 %
02.08.2020 13:58 22,5 C 27,8 C 24,4 C 77 % 1015,3 hPa 0,0 l/m 2 min 0 min 939 W/m 19,3 km/h (3 Bft) 97,87 %
02.08.2020 14:00 22,6 C 27,8 C 24,4 C 74 % 1015,3 hPa 0,0 l/m 2 min 0 min 527 W/m 12,9 km/h (3 Bft) 100,00 %
02.08.2020 14:02 22,8 C 28,3 C 25,0 C 74 % 1015,2 hPa 0,0 l/m 2 min 0 min 508 W/m 12,9 km/h (3 Bft) 97,87 %
02.08.2020 14:04 22,9 C 28,3 C 25,6 C 74 % 1015,2 hPa 0,0 l/m 2 min 0 min 573 W/m 6,4 km/h (2 Bft) 100,00 %
02.08.2020 14:06 23,1 C 27,8 C 26,1 C 73 % 1015,2 hPa 0,0 l/m 2 min 0 min 573 W/m 6,4 km/h (2 Bft) 100,00 %
02.08.2020 14:08 23,2 C 28,3 C 27,2 C 73 % 1015,2 hPa 0,0 l/m 2 min 0 min 573 W/m 12,9 km/h (3 Bft) 100,00 %
02.08.2020 14:10 23,3 C 28,9 C 28,3 C 73 % 1015,2 hPa 0,0 l/m 2 min 0 min 835 W/m 6,4 km/h (2 Bft) 100,00 %
02.08.2020 14:14 23,7 C 29,4 C 27,8 C 72 % 1015,1 hPa 0,0 l/m 4 min 0 min 951 W/m 12,9 km/h (3 Bft) 98,95 %
02.08.2020 14:20 24,1 C 31,1 C 27,8 C 71 % 1015,1 hPa 0,0 l/m 5 min 0 min 1044 W/m 12,9 km/h (3 Bft) 99,31 %
02.08.2020 14:26 24,7 C 30,0 C 26,1 C 69 % 1015,0 hPa 0,0 l/m 5 min 0 min 1039 W/m 6,4 km/h (2 Bft) 100,00 %
02.08.2020 14:28 24,8 C 30,0 C 25,6 C 68 % 1015,0 hPa 0,0 l/m 2 min 0 min 984 W/m 6,4 km/h (2 Bft) 100,00 %
02.08.2020 14:30 24,9 C 31,1 C 25,6 C 68 % 1014,9 hPa 0,0 l/m 2 min 0 min 1012 W/m 12,9 km/h (3 Bft) 100,00 %
02.08.2020 14:36 25,2 C 28,3 C 25,0 C 67 % 1015,0 hPa 0,0 l/m 0 min 0 min 334 W/m 6,4 km/h (2 Bft) 99,32 %
02.08.2020 14:42 25,5 C 29,4 C 25,0 C 66 % 1015,0 hPa 0,0 l/m 5 min 0 min 1000 W/m 12,9 km/h (3 Bft) 99,28 %
02.08.2020 14:46 25,6 C 28,9 C 25,0 C 66 % 1015,0 hPa 0,0 l/m 4 min 0 min 926 W/m 9,7 km/h (2 Bft) 98,96 %
02.08.2020 14:50 25,7 C 27,8 C 25,0 C 66 % 1014,9 hPa 0,0 l/m 4 min 0 min 473 W/m 16,1 km/h (3 Bft) 100,00 %
02.08.2020 14:54 25,7 C 28,9 C 25,0 C 65 % 1014,9 hPa 0,0 l/m 4 min 0 min 840 W/m 6,4 km/h (2 Bft) 100,00 %
02.08.2020 14:58 25,7 C 27,8 C 25,0 C 65 % 1014,8 hPa 0,0 l/m 4 min 0 min 408 W/m 9,7 km/h (2 Bft) 100,00 %
02.08.2020 15:00 25,7 C 27,2 C 25,0 C 65 % 1014,8 hPa 0,0 l/m 2 min 0 min 387 W/m 6,4 km/h (2 Bft) 100,00 %
02.08.2020 15:02 25,7 C 26,7 C 24,4 C 65 % 1014,8 hPa 0,0 l/m 0 min 0 min 343 W/m 9,7 km/h (2 Bft) 100,00 %
02.08.2020 15:04 25,6 C 26,1 C 24,4 C 65 % 1014,8 hPa 0,0 l/m 0 min 0 min 318 W/m 9,7 km/h (2 Bft) 100,00 %
02.08.2020 15:06 25,6 C 25,6 C 24,4 C 65 % 1014,8 hPa 0,0 l/m 0 min 0 min 314 W/m 9,7 km/h (2 Bft) 97,87 %
02.08.2020 15:08 25,5 C 26,1 C 24,4 C 65 % 1014,8 hPa 0,0 l/m 0 min 0 min 346 W/m 6,4 km/h (2 Bft) 97,87 %
02.08.2020 15:10 25,4 C 27,2 C 24,4 C 65 % 1014,8 hPa 0,0 l/m 2 min 0 min 422 W/m 12,9 km/h (3 Bft) 97,83 %
02.08.2020 15:12 25,5 C 28,9 C 25,0 C 66 % 1014,8 hPa 0,0 l/m 2 min 0 min 514 W/m 6,4 km/h (2 Bft) 97,87 %
02.08.2020 15:14 25,5 C 28,9 C 25,0 C 66 % 1014,8 hPa 0,0 l/m 2 min 0 min 520 W/m 12,9 km/h (3 Bft) 95,74 %
02.08.2020 15:16 25,6 C 28,3 C 25,0 C 64 % 1014,8 hPa 0,0 l/m 2 min 0 min 478 W/m 19,3 km/h (3 Bft) 97,87 %
02.08.2020 15:18 25,5 C 27,2 C 24,4 C 64 % 1014,8 hPa 0,0 l/m 0 min 0 min 356 W/m 19,3 km/h (3 Bft) 97,87 %
02.08.2020 15:20 25,4 C 26,1 C 24,4 C 63 % 1014,7 hPa 0,0 l/m 0 min 0 min 273 W/m 9,7 km/h (2 Bft) 95,74 %
02.08.2020 15:22 25,4 C 26,1 C 23,9 C 64 % 1014,8 hPa 0,0 l/m 0 min 0 min 247 W/m 9,7 km/h (2 Bft) 95,65 %
02.08.2020 15:24 25,3 C 25,0 C 23,9 C 65 % 1014,8 hPa 0,0 l/m 0 min 0 min 234 W/m 6,4 km/h (2 Bft) 97,87 %
02.08.2020 15:26 25,2 C 25,0 C 23,9 C 64 % 1014,8 hPa 0,0 l/m 0 min 0 min 179 W/m 9,7 km/h (2 Bft) 97,87 %
02.08.2020 15:28 25,2 C 24,4 C 23,3 C 65 % 1014,8 hPa 0,0 l/m 0 min 0 min 146 W/m 9,7 km/h (2 Bft) 97,87 %
02.08.2020 15:30 25,1 C 23,9 C 23,3 C 65 % 1014,8 hPa 0,0 l/m 0 min 0 min 132 W/m 16,1 km/h (3 Bft) 95,74 %
02.08.2020 15:32 24,9 C 23,3 C 22,8 C 64 % 1014,8 hPa 0,0 l/m 0 min 0 min 131 W/m 12,9 km/h (3 Bft) 96,30 %
02.08.2020 15:34 24,8 C 23,3 C 22,8 C 65 % 1014,8 hPa 0,0 l/m 0 min 0 min 135 W/m 9,7 km/h (2 Bft) 93,62 %
02.08.2020 15:36 24,6 C 23,3 C 22,8 C 65 % 1014,8 hPa 0,0 l/m 0 min 0 min 131 W/m 9,7 km/h (2 Bft) 97,92 %
02.08.2020 15:38 24,5 C 22,8 C 22,2 C 66 % 1014,8 hPa 0,0 l/m 0 min 2 min 125 W/m 16,1 km/h (3 Bft) 95,65 %
02.08.2020 15:40 24,4 C 22,8 C 21,7 C 67 % 1014,7 hPa 0,0 l/m 0 min 0 min 131 W/m 9,7 km/h (2 Bft) 95,74 %
02.08.2020 15:42 24,2 C 22,2 C 21,7 C 68 % 1014,7 hPa 0,0 l/m 0 min 2 min 154 W/m 9,7 km/h (2 Bft) 95,83 %
02.08.2020 15:44 24,1 C 22,2 C 22,2 C 68 % 1014,7 hPa 0,0 l/m 0 min 0 min 174 W/m 9,7 km/h (2 Bft) 97,87 %
02.08.2020 15:46 24,0 C 22,8 C 22,2 C 68 % 1014,7 hPa 0,0 l/m 0 min 0 min 188 W/m 9,7 km/h (2 Bft) 97,87 %
02.08.2020 15:48 23,9 C 22,8 C 22,2 C 69 % 1014,7 hPa 0,0 l/m 0 min 0 min 183 W/m 6,4 km/h (2 Bft) 97,87 %
02.08.2020 15:50 23,8 C 22,8 C 22,2 C 69 % 1014,7 hPa 0,0 l/m 0 min 0 min 174 W/m 6,4 km/h (2 Bft) 93,48 %
02.08.2020 15:52 23,7 C 22,8 C 22,2 C 69 % 1014,7 hPa 0,0 l/m 0 min 0 min 179 W/m 6,4 km/h (2 Bft) 97,87 %
02.08.2020 15:54 23,6 C 22,8 C 21,7 C 68 % 1014,7 hPa 0,0 l/m 0 min 0 min 159 W/m 9,7 km/h (2 Bft) 95,74 %
02.08.2020 15:56 23,5 C 22,2 C 21,7 C 68 % 1014,8 hPa 0,0 l/m 0 min 0 min 133 W/m 12,9 km/h (3 Bft) 95,74 %
02.08.2020 15:58 23,4 C 22,2 C 21,7 C 68 % 1014,7 hPa 0,0 l/m 0 min 0 min 125 W/m 12,9 km/h (3 Bft) 97,87 %
02.08.2020 16:00 23,3 C 22,2 C 21,7 C 69 % 1014,7 hPa 0,0 l/m 0 min 0 min 128 W/m 9,7 km/h (2 Bft) 97,83 %
02.08.2020 16:02 23,3 C 22,2 C 21,7 C 69 % 1014,7 hPa 0,0 l/m 0 min 0 min 126 W/m 9,7 km/h (2 Bft) 93,62 %
02.08.2020 16:04 23,2 C 22,2 C 21,7 C 69 % 1014,8 hPa 0,0 l/m 0 min 0 min 122 W/m 9,7 km/h (2 Bft) 97,87 %
02.08.2020 16:06 23,1 C 21,7 C 21,7 C 69 % 1014,8 hPa 0,0 l/m 0 min 0 min 116 W/m 9,7 km/h (2 Bft) 93,88 %
02.08.2020 16:08 23,1 C 21,7 C 21,7 C 69 % 1014,8 hPa 0,0 l/m 0 min 0 min 113 W/m 12,9 km/h (3 Bft) 97,14 %
02.08.2020 16:10 23,0 C 21,7 C 21,7 C 70 % 1014,7 hPa 0,0 l/m 0 min 0 min 120 W/m 9,7 km/h (2 Bft) 96,36 %
02.08.2020 16:12 22,9 C 21,7 C 21,1 C 70 % 1014,7 hPa 0,0 l/m 0 min 0 min 125 W/m 6,4 km/h (2 Bft) 97,44 %
02.08.2020 16:14 22,8 C 21,7 C 21,1 C 70 % 1014,7 hPa 0,0 l/m 0 min 0 min 125 W/m 16,1 km/h (3 Bft) 96,61 %
02.08.2020 16:16 22,8 C 21,7 C 21,1 C 70 % 1014,7 hPa 0,0 l/m 0 min 0 min 126 W/m 6,4 km/h (2 Bft) 95,45 %
02.08.2020 16:18 22,8 C 21,7 C 21,1 C 70 % 1014,7 hPa 0,0 l/m 0 min 0 min 128 W/m 9,7 km/h (2 Bft) 100,00 %
02.08.2020 16:20 22,7 C 21,7 C 21,1 C 70 % 1014,7 hPa 0,0 l/m 0 min 0 min 132 W/m 9,7 km/h (2 Bft) 95,65 %
02.08.2020 16:22 22,6 C 21,7 C 21,1 C 70 % 1014,7 hPa 0,0 l/m 0 min 0 min 131 W/m 6,4 km/h (2 Bft) 95,74 %
02.08.2020 16:24 22,6 C 21,7 C 21,1 C 70 % 1014,7 hPa 0,0 l/m 0 min 0 min 126 W/m 16,1 km/h (3 Bft) 93,62 %
02.08.2020 16:26 22,6 C 22,2 C 21,1 C 70 % 1014,7 hPa 0,0 l/m 0 min 0 min 123 W/m 3,2 km/h (1 Bft) 95,56 %
02.08.2020 16:28 22,6 C 22,2 C 21,1 C 71 % 1014,7 hPa 0,0 l/m 0 min 0 min 127 W/m 6,4 km/h (2 Bft) 95,74 %
02.08.2020 16:30 22,5 C 22,2 C 21,1 C 71 % 1014,7 hPa 0,0 l/m 0 min 0 min 132 W/m 6,4 km/h (2 Bft) 95,74 %
02.08.2020 16:32 22,5 C 21,7 C 21,1 C 70 % 1014,7 hPa 0,0 l/m 0 min 0 min 127 W/m 9,7 km/h (2 Bft) 94,59 %
02.08.2020 16:34 22,4 C 22,2 C 21,1 C 70 % 1014,7 hPa 0,0 l/m 0 min 0 min 126 W/m 3,2 km/h (1 Bft) 96,97 %
02.08.2020 16:38 22,4 C 22,2 C 21,1 C 70 % 1014,7 hPa 0,0 l/m 0 min 0 min 141 W/m 6,4 km/h (2 Bft) 94,19 %
02.08.2020 16:40 22,4 C 22,2 C 21,1 C 71 % 1014,7 hPa 0,0 l/m 0 min 0 min 162 W/m 9,7 km/h (2 Bft) 95,65 %
02.08.2020 16:42 22,4 C 22,8 C 21,1 C 71 % 1014,7 hPa 0,0 l/m 0 min 0 min 183 W/m 3,2 km/h (1 Bft) 91,49 %
02.08.2020 16:44 22,4 C 22,8 C 21,7 C 71 % 1014,7 hPa 0,0 l/m 0 min 0 min 212 W/m 3,2 km/h (1 Bft) 95,74 %
02.08.2020 16:46 22,4 C 23,3 C 21,7 C 71 % 1014,6 hPa 0,0 l/m 0 min 0 min 245 W/m 3,2 km/h (1 Bft) 95,74 %
02.08.2020 16:50 22,5 C 23,3 C 22,2 C 73 % 1014,6 hPa 0,0 l/m 0 min 0 min 230 W/m 3,2 km/h (1 Bft) 96,81 %
02.08.2020 16:52 22,5 C 23,3 C 22,2 C 72 % 1014,6 hPa 0,0 l/m 0 min 0 min 200 W/m 6,4 km/h (2 Bft) 97,87 %
02.08.2020 16:54 22,6 C 23,9 C 22,2 C 72 % 1014,6 hPa 0,0 l/m 0 min 0 min 194 W/m 3,2 km/h (1 Bft) 97,73 %
02.08.2020 16:56 22,6 C 23,3 C 22,2 C 73 % 1014,6 hPa 0,0 l/m 0 min 0 min 204 W/m 6,4 km/h (2 Bft) 93,88 %
02.08.2020 16:58 22,6 C 23,3 C 21,7 C 72 % 1014,6 hPa 0,0 l/m 0 min 0 min 226 W/m 6,4 km/h (2 Bft) 96,36 %
02.08.2020 17:00 22,6 C 23,9 C 21,7 C 72 % 1014,6 hPa 0,0 l/m 0 min 0 min 233 W/m 9,7 km/h (2 Bft) 97,44 %
02.08.2020 17:02 22,7 C 23,3 C 21,7 C 71 % 1014,6 hPa 0,0 l/m 0 min 0 min 225 W/m 16,1 km/h (3 Bft) 97,87 %
02.08.2020 17:04 22,7 C 23,9 C 22,2 C 72 % 1014,6 hPa 0,0 l/m 0 min 0 min 234 W/m 6,4 km/h (2 Bft) 95,74 %
02.08.2020 17:06 22,8 C 23,9 C 22,2 C 73 % 1014,6 hPa 0,0 l/m 0 min 0 min 236 W/m 6,4 km/h (2 Bft) 96,55 %
02.08.2020 17:08 22,8 C 23,9 C 22,2 C 72 % 1014,6 hPa 0,0 l/m 0 min 0 min 217 W/m 6,4 km/h (2 Bft) 97,14 %
02.08.2020 17:10 22,8 C 23,3 C 21,7 C 71 % 1014,6 hPa 0,0 l/m 0 min 0 min 198 W/m 12,9 km/h (3 Bft) 97,87 %
02.08.2020 17:12 22,8 C 23,3 C 21,7 C 70 % 1014,6 hPa 0,0 l/m 0 min 0 min 186 W/m 9,7 km/h (2 Bft) 97,87 %
02.08.2020 17:14 22,8 C 23,9 C 21,7 C 71 % 1014,6 hPa 0,0 l/m 0 min 0 min 163 W/m 3,2 km/h (1 Bft) 100,00 %
02.08.2020 17:16 22,9 C 23,3 C 21,7 C 71 % 1014,6 hPa 0,0 l/m 0 min 0 min 132 W/m 9,7 km/h (2 Bft) 95,74 %
02.08.2020 17:18 22,9 C 22,8 C 21,7 C 71 % 1014,6 hPa 0,0 l/m 0 min 0 min 103 W/m 9,7 km/h (2 Bft) 100,00 %
02.08.2020 17:20 22,9 C 22,8 C 21,7 C 69 % 1014,6 hPa 0,0 l/m 0 min 0 min 82 W/m 9,7 km/h (2 Bft) 97,87 %
02.08.2020 17:22 22,9 C 22,2 C 21,1 C 69 % 1014,6 hPa 0,0 l/m 0 min 0 min 71 W/m 6,4 km/h (2 Bft) 97,87 %
02.08.2020 17:24 22,8 C 22,2 C 21,1 C 69 % 1014,6 hPa 0,0 l/m 0 min 0 min 68 W/m 6,4 km/h (2 Bft) 100,00 %
02.08.2020 17:26 22,8 C 21,7 C 21,1 C 68 % 1014,6 hPa 0,0 l/m 0 min 0 min 73 W/m 6,4 km/h (2 Bft) 97,87 %
02.08.2020 17:28 22,8 C 21,7 C 21,1 C 68 % 1014,6 hPa 0,0 l/m 0 min 0 min 87 W/m 6,4 km/h (2 Bft) 97,87 %
02.08.2020 17:30 22,7 C 21,7 C 21,1 C 68 % 1014,5 hPa 0,0 l/m 0 min 0 min 110 W/m 6,4 km/h (2 Bft) 100,00 %
02.08.2020 17:32 22,7 C 22,2 C 21,1 C 68 % 1014,5 hPa 0,0 l/m 0 min 0 min 133 W/m 3,2 km/h (1 Bft) 100,00 %
02.08.2020 17:34 22,7 C 22,2 C 21,1 C 68 % 1014,5 hPa 0,0 l/m 0 min 0 min 158 W/m 9,7 km/h (2 Bft) 100,00 %
02.08.2020 17:36 22,7 C 22,2 C 21,7 C 68 % 1014,5 hPa 0,0 l/m 0 min 0 min 158 W/m 3,2 km/h (1 Bft) 100,00 %
02.08.2020 17:38 22,7 C 22,8 C 21,7 C 69 % 1014,5 hPa 0,0 l/m 0 min 0 min 137 W/m 6,4 km/h (2 Bft) 100,00 %
02.08.2020 17:40 22,7 C 22,2 C 21,7 C 68 % 1014,5 hPa 0,0 l/m 0 min 0 min 126 W/m 6,4 km/h (2 Bft) 97,83 %
02.08.2020 17:42 22,7 C 22,8 C 21,1 C 69 % 1014,6 hPa 0,0 l/m 0 min 0 min 132 W/m 3,2 km/h (1 Bft) 97,87 %
02.08.2020 17:44 22,7 C 22,8 C 21,1 C 69 % 1014,5 hPa 0,0 l/m 0 min 0 min 155 W/m 9,7 km/h (2 Bft) 97,87 %
02.08.2020 17:46 22,7 C 22,8 C 21,7 C 69 % 1014,5 hPa 0,0 l/m 0 min 0 min 175 W/m 6,4 km/h (2 Bft) 97,87 %
02.08.2020 17:48 22,7 C 22,8 C 21,7 C 68 % 1014,5 hPa 0,0 l/m 0 min 0 min 183 W/m 6,4 km/h (2 Bft) 97,87 %
02.08.2020 17:50 22,7 C 22,8 C 21,7 C 68 % 1014,5 hPa 0,0 l/m 0 min 0 min 174 W/m 9,7 km/h (2 Bft) 97,87 %
02.08.2020 17:52 22,7 C 23,3 C 21,7 C 68 % 1014,5 hPa 0,0 l/m 0 min 0 min 178 W/m 3,2 km/h (1 Bft) 97,83 %
02.08.2020 17:54 22,7 C 23,3 C 21,7 C 67 % 1014,5 hPa 0,0 l/m 0 min 0 min 206 W/m 6,4 km/h (2 Bft) 97,87 %
02.08.2020 17:56 22,7 C 23,3 C 21,7 C 66 % 1014,4 hPa 0,0 l/m 0 min 0 min 220 W/m 6,4 km/h (2 Bft) 93,62 %
02.08.2020 17:58 22,7 C 23,3 C 21,7 C 65 % 1014,4 hPa 0,0 l/m 0 min 0 min 206 W/m 19,3 km/h (3 Bft) 97,87 %
02.08.2020 18:00 22,8 C 23,3 C 21,7 C 65 % 1014,4 hPa 0,0 l/m 0 min 0 min 177 W/m 12,9 km/h (3 Bft) 97,87 %
02.08.2020 18:02 22,8 C 23,3 C 21,7 C 65 % 1014,5 hPa 0,0 l/m 0 min 0 min 159 W/m 16,1 km/h (3 Bft) 95,74 %
02.08.2020 18:04 22,8 C 23,3 C 21,7 C 65 % 1014,4 hPa 0,0 l/m 0 min 0 min 168 W/m 6,4 km/h (2 Bft) 97,83 %
02.08.2020 18:07 22,8 C 23,9 C 21,7 C 65 % 1014,4 hPa 0,0 l/m 0 min 0 min 220 W/m 6,4 km/h (2 Bft) 97,40 %
02.08.2020 18:10 22,9 C 23,9 C 21,7 C 66 % 1014,4 hPa 0,0 l/m 0 min 0 min 201 W/m 9,7 km/h (2 Bft) 97,14 %
02.08.2020 18:12 22,9 C 23,9 C 21,7 C 66 % 1014,4 hPa 0,0 l/m 0 min 0 min 185 W/m 9,7 km/h (2 Bft) 97,87 %
02.08.2020 18:14 22,9 C 23,3 C 21,7 C 66 % 1014,4 hPa 0,0 l/m 0 min 0 min 155 W/m 6,4 km/h (2 Bft) 97,87 %
02.08.2020 18:16 22,9 C 23,3 C 21,7 C 65 % 1014,4 hPa 0,0 l/m 0 min 0 min 130 W/m 9,7 km/h (2 Bft) 97,87 %
02.08.2020 18:18 23,0 C 22,8 C 21,7 C 66 % 1014,4 hPa 0,0 l/m 0 min 0 min 101 W/m 6,4 km/h (2 Bft) 97,87 %
02.08.2020 18:20 23,0 C 22,8 C 21,7 C 65 % 1014,4 hPa 0,0 l/m 0 min 0 min 88 W/m 9,7 km/h (2 Bft) 97,87 %
02.08.2020 18:22 23,0 C 22,8 C 21,7 C 65 % 1014,4 hPa 0,0 l/m 0 min 0 min 83 W/m 9,7 km/h (2 Bft) 97,83 %
02.08.2020 18:24 22,9 C 22,2 C 21,7 C 64 % 1014,4 hPa 0,0 l/m 0 min 0 min 80 W/m 12,9 km/h (3 Bft) 97,87 %
02.08.2020 18:26 22,9 C 22,2 C 21,1 C 64 % 1014,4 hPa 0,0 l/m 0 min 0 min 74 W/m 6,4 km/h (2 Bft) 100,00 %
02.08.2020 18:28 22,9 C 22,2 C 21,1 C 64 % 1014,4 hPa 0,0 l/m 0 min 0 min 73 W/m 9,7 km/h (2 Bft) 97,87 %
02.08.2020 18:30 22,9 C 22,2 C 21,1 C 64 % 1014,4 hPa 0,0 l/m 0 min 0 min 71 W/m 6,4 km/h (2 Bft) 100,00 %
02.08.2020 18:32 22,9 C 22,2 C 21,1 C 64 % 1014,4 hPa 0,0 l/m 0 min 0 min 65 W/m 6,4 km/h (2 Bft) 100,00 %
02.08.2020 18:34 22,9 C 22,2 C 21,1 C 64 % 1014,4 hPa 0,0 l/m 0 min 0 min 62 W/m 3,2 km/h (1 Bft) 100,00 %
02.08.2020 18:36 22,8 C 21,7 C 21,1 C 65 % 1014,4 hPa 0,0 l/m 0 min 0 min 62 W/m 6,4 km/h (2 Bft) 100,00 %
02.08.2020 18:38 22,8 C 21,7 C 21,1 C 64 % 1014,4 hPa 0,0 l/m 0 min 0 min 58 W/m 6,4 km/h (2 Bft) 97,22 %
02.08.2020 18:40 22,8 C 21,7 C 21,1 C 64 % 1014,4 hPa 0,0 l/m 0 min 0 min 56 W/m 9,7 km/h (2 Bft) 100,00 %
02.08.2020 18:42 22,8 C 21,7 C 21,1 C 64 % 1014,3 hPa 0,0 l/m 0 min 0 min 54 W/m 12,9 km/h (3 Bft) 100,00 %
02.08.2020 18:44 22,7 C 21,7 C 21,1 C 63 % 1014,3 hPa 0,0 l/m 0 min 0 min 48 W/m 12,9 km/h (3 Bft) 100,00 %
02.08.2020 18:46 22,7 C 21,7 C 21,1 C 63 % 1014,4 hPa 0,0 l/m 0 min 0 min 43 W/m 12,9 km/h (3 Bft) 100,00 %
02.08.2020 18:48 22,6 C 21,7 C 21,1 C 64 % 1014,3 hPa 0,0 l/m 0 min 0 min 37 W/m 6,4 km/h (2 Bft) 100,00 %
02.08.2020 18:50 22,6 C 21,1 C 20,6 C 64 % 1014,3 hPa 0,0 l/m 0 min 0 min 39 W/m 12,9 km/h (3 Bft) 100,00 %
02.08.2020 18:52 22,6 C 21,1 C 20,6 C 64 % 1014,4 hPa 0,0 l/m 0 min 0 min 44 W/m 3,2 km/h (1 Bft) 97,83 %
02.08.2020 18:54 22,6 C 21,1 C 20,6 C 65 % 1014,4 hPa 0,0 l/m 0 min 0 min 50 W/m 3,2 km/h (1 Bft) 97,87 %
02.08.2020 18:56 22,5 C 21,1 C 20,6 C 65 % 1014,4 hPa 0,0 l/m 0 min 0 min 57 W/m 6,4 km/h (2 Bft) 96,23 %
02.08.2020 18:58 22,5 C 21,1 C 20,6 C 65 % 1014,5 hPa 0,0 l/m 0 min 0 min 61 W/m 6,4 km/h (2 Bft) 100,00 %
02.08.2020 19:00 22,4 C 21,1 C 20,6 C 65 % 1014,5 hPa 0,0 l/m 0 min 0 min 62 W/m 6,4 km/h (2 Bft) 100,00 %
02.08.2020 19:02 22,4 C 21,1 C 20,6 C 65 % 1014,5 hPa 0,0 l/m 0 min 0 min 57 W/m 16,1 km/h (3 Bft) 97,96 %
02.08.2020 19:04 22,3 C 21,1 C 20,6 C 65 % 1014,5 hPa 0,0 l/m 0 min 0 min 52 W/m 6,4 km/h (2 Bft) 97,87 %
02.08.2020 19:06 22,3 C 21,1 C 20,6 C 65 % 1014,6 hPa 0,0 l/m 0 min 0 min 45 W/m 6,4 km/h (2 Bft) 98,31 %
02.08.2020 19:08 22,3 C 21,1 C 20,6 C 65 % 1014,5 hPa 0,0 l/m 0 min 0 min 43 W/m 6,4 km/h (2 Bft) 100,00 %
02.08.2020 19:10 22,3 C 21,1 C 20,6 C 65 % 1014,5 hPa 0,0 l/m 0 min 0 min 46 W/m 3,2 km/h (1 Bft) 97,87 %
02.08.2020 19:12 22,2 C 21,1 C 20,6 C 65 % 1014,5 hPa 0,0 l/m 0 min 0 min 44 W/m 6,4 km/h (2 Bft) 97,87 %
02.08.2020 19:14 22,2 C 21,1 C 20,6 C 65 % 1014,5 hPa 0,0 l/m 0 min 0 min 44 W/m 12,9 km/h (3 Bft) 98,15 %
02.08.2020 19:16 22,2 C 21,1 C 20,6 C 65 % 1014,6 hPa 0,0 l/m 0 min 0 min 43 W/m 12,9 km/h (3 Bft) 95,74 %
02.08.2020 19:18 22,2 C 21,1 C 20,6 C 65 % 1014,6 hPa 0,0 l/m 0 min 0 min 46 W/m 6,4 km/h (2 Bft) 97,83 %
02.08.2020 19:20 22,1 C 21,1 C 20,6 C 65 % 1014,6 hPa 0,0 l/m 0 min 0 min 50 W/m 12,9 km/h (3 Bft) 95,74 %
02.08.2020 19:22 22,1 C 21,1 C 20,6 C 66 % 1014,6 hPa 0,0 l/m 0 min 0 min 53 W/m 3,2 km/h (1 Bft) 97,87 %
02.08.2020 19:24 22,1 C 21,1 C 20,6 C 65 % 1014,6 hPa 0,0 l/m 0 min 0 min 63 W/m 9,7 km/h (2 Bft) 95,83 %
02.08.2020 19:26 22,1 C 21,1 C 20,6 C 66 % 1014,5 hPa 0,0 l/m 0 min 0 min 66 W/m 9,7 km/h (2 Bft) 100,00 %
02.08.2020 19:28 22,1 C 21,1 C 20,6 C 66 % 1014,6 hPa 0,0 l/m 0 min 0 min 63 W/m 9,7 km/h (2 Bft) 95,83 %
02.08.2020 19:30 22,1 C 21,1 C 20,6 C 65 % 1014,5 hPa 0,0 l/m 0 min 0 min 61 W/m 9,7 km/h (2 Bft) 97,87 %
02.08.2020 19:32 22,0 C 21,1 C 20,6 C 66 % 1014,6 hPa 0,0 l/m 0 min 0 min 58 W/m 19,3 km/h (3 Bft) 94,34 %
02.08.2020 19:34 22,0 C 21,1 C 20,6 C 65 % 1014,6 hPa 0,0 l/m 0 min 0 min 54 W/m 12,9 km/h (3 Bft) 93,62 %
02.08.2020 19:37 22,0 C 21,1 C 20,6 C 65 % 1014,7 hPa 0,0 l/m 0 min 0 min 59 W/m 12,9 km/h (3 Bft) 96,88 %
02.08.2020 19:40 21,9 C 21,1 C 20,6 C 66 % 1014,7 hPa 0,0 l/m 0 min 0 min 58 W/m 12,9 km/h (3 Bft) 94,29 %
02.08.2020 19:42 21,9 C 21,1 C 20,6 C 65 % 1014,7 hPa 0,0 l/m 0 min 0 min 48 W/m 9,7 km/h (2 Bft) 95,74 %
02.08.2020 19:44 21,9 C 21,1 C 20,6 C 65 % 1014,7 hPa 0,0 l/m 0 min 0 min 46 W/m 16,1 km/h (3 Bft) 96,30 %
02.08.2020 19:46 21,9 C 21,1 C 20,6 C 65 % 1014,7 hPa 0,0 l/m 0 min 0 min 46 W/m 16,1 km/h (3 Bft) 93,75 %
02.08.2020 19:48 21,9 C 21,1 C 20,6 C 65 % 1014,7 hPa 0,0 l/m 0 min 0 min 42 W/m 19,3 km/h (3 Bft) 95,83 %
02.08.2020 19:50 21,9 C 21,1 C 20,6 C 65 % 1014,7 hPa 0,0 l/m 0 min 0 min 38 W/m 12,9 km/h (3 Bft) 94,44 %
02.08.2020 19:52 21,9 C 21,1 C 20,6 C 65 % 1014,8 hPa 0,0 l/m 0 min 0 min 34 W/m 19,3 km/h (3 Bft) 95,83 %
02.08.2020 19:54 21,8 C 20,6 C 20,6 C 65 % 1014,7 hPa 0,0 l/m 0 min 0 min 33 W/m 12,9 km/h (3 Bft) 97,87 %
02.08.2020 19:56 21,8 C 20,6 C 20,6 C 64 % 1014,7 hPa 0,0 l/m 0 min 0 min 33 W/m 9,7 km/h (2 Bft) 95,74 %
02.08.2020 19:58 21,8 C 20,6 C 20,6 C 65 % 1014,7 hPa 0,0 l/m 0 min 0 min 33 W/m 6,4 km/h (2 Bft) 95,74 %
02.08.2020 20:00 21,8 C 20,6 C 20,0 C 65 % 1014,7 hPa 0,0 l/m 0 min 0 min 37 W/m 16,1 km/h (3 Bft) 93,48 %
02.08.2020 20:02 21,7 C 20,6 C 20,0 C 65 % 1014,8 hPa 0,0 l/m 0 min 0 min 40 W/m 6,4 km/h (2 Bft) 96,36 %
02.08.2020 20:04 21,7 C 20,6 C 20,0 C 65 % 1014,8 hPa 0,0 l/m 0 min 0 min 45 W/m 9,7 km/h (2 Bft) 97,87 %
02.08.2020 20:06 21,7 C 20,6 C 20,0 C 65 % 1014,8 hPa 0,0 l/m 0 min 0 min 46 W/m 6,4 km/h (2 Bft) 96,67 %
02.08.2020 20:08 21,7 C 20,6 C 20,0 C 65 % 1014,8 hPa 0,0 l/m 0 min 0 min 47 W/m 12,9 km/h (3 Bft) 100,00 %
02.08.2020 20:10 21,7 C 20,6 C 20,0 C 65 % 1014,8 hPa 0,0 l/m 0 min 0 min 47 W/m 6,4 km/h (2 Bft) 97,92 %
02.08.2020 20:12 21,7 C 20,6 C 20,0 C 65 % 1014,8 hPa 0,0 l/m 0 min 0 min 47 W/m 3,2 km/h (1 Bft) 97,87 %
02.08.2020 20:14 21,7 C 20,6 C 20,0 C 65 % 1014,9 hPa 0,0 l/m 0 min 0 min 52 W/m 12,9 km/h (3 Bft) 97,87 %
02.08.2020 20:16 21,6 C 20,6 C 20,0 C 65 % 1014,9 hPa 0,0 l/m 0 min 0 min 64 W/m 12,9 km/h (3 Bft) 95,74 %
02.08.2020 20:18 21,7 C 20,6 C 20,6 C 65 % 1014,8 hPa 0,0 l/m 2 min 0 min 68 W/m 9,7 km/h (2 Bft) 95,74 %
02.08.2020 20:20 21,6 C 20,6 C 20,0 C 66 % 1014,8 hPa 0,0 l/m 2 min 0 min 65 W/m 6,4 km/h (2 Bft) 95,65 %
02.08.2020 20:22 21,6 C 20,6 C 20,0 C 66 % 1014,8 hPa 0,0 l/m 2 min 0 min 62 W/m 6,4 km/h (2 Bft) 95,74 %
02.08.2020 20:24 21,6 C 20,6 C 20,0 C 66 % 1014,8 hPa 0,0 l/m 2 min 0 min 60 W/m 6,4 km/h (2 Bft) 95,74 %
02.08.2020 20:26 21,6 C 20,6 C 20,0 C 66 % 1014,8 hPa 0,0 l/m 2 min 0 min 58 W/m 12,9 km/h (3 Bft) 93,75 %
02.08.2020 20:28 21,6 C 20,6 C 20,0 C 66 % 1014,8 hPa 0,0 l/m 2 min 0 min 55 W/m 6,4 km/h (2 Bft) 97,87 %
02.08.2020 20:30 21,6 C 20,6 C 20,0 C 66 % 1014,8 hPa 0,0 l/m 0 min 0 min 49 W/m 9,7 km/h (2 Bft) 95,74 %
02.08.2020 20:32 21,6 C 20,6 C 20,0 C 66 % 1014,9 hPa 0,0 l/m 0 min 0 min 42 W/m 6,4 km/h (2 Bft) 95,74 %
02.08.2020 20:34 21,6 C 20,6 C 20,0 C 66 % 1014,9 hPa 0,0 l/m 0 min 0 min 36 W/m 3,2 km/h (1 Bft) 95,74 %
02.08.2020 20:36 21,6 C 20,6 C 20,0 C 66 % 1015,0 hPa 0,0 l/m 0 min 0 min 31 W/m 3,2 km/h (1 Bft) 96,92 %
02.08.2020 20:38 21,5 C 20,6 C 20,0 C 65 % 1015,0 hPa 0,0 l/m 0 min 0 min 30 W/m 9,7 km/h (2 Bft) 97,30 %
02.08.2020 20:40 21,5 C 20,6 C 20,0 C 65 % 1015,0 hPa 0,0 l/m 0 min 0 min 30 W/m 9,7 km/h (2 Bft) 95,74 %
02.08.2020 20:42 21,5 C 20,6 C 20,0 C 65 % 1015,0 hPa 0,0 l/m 0 min 0 min 30 W/m 6,4 km/h (2 Bft) 94,59 %
02.08.2020 20:44 21,4 C 20,6 C 20,0 C 64 % 1015,0 hPa 0,0 l/m 0 min 0 min 27 W/m 12,9 km/h (3 Bft) 97,92 %
02.08.2020 20:46 21,4 C 20,6 C 20,0 C 65 % 1015,0 hPa 0,0 l/m 0 min 0 min 25 W/m 9,7 km/h (2 Bft) 97,87 %
02.08.2020 20:48 21,4 C 20,6 C 20,0 C 65 % 1015,1 hPa 0,0 l/m 0 min 0 min 25 W/m 3,2 km/h (1 Bft) 97,83 %
02.08.2020 20:50 21,4 C 20,0 C 20,0 C 65 % 1015,1 hPa 0,0 l/m 0 min 0 min 23 W/m 6,4 km/h (2 Bft) 95,74 %
02.08.2020 20:52 21,4 C 20,0 C 20,0 C 65 % 1015,1 hPa 0,0 l/m 0 min 0 min 21 W/m 9,7 km/h (2 Bft) 97,87 %
02.08.2020 20:54 21,4 C 20,0 C 20,0 C 65 % 1015,1 hPa 0,0 l/m 0 min 0 min 19 W/m 9,7 km/h (2 Bft) 97,87 %
02.08.2020 20:56 21,3 C 20,0 C 20,0 C 65 % 1015,1 hPa 0,0 l/m 0 min 0 min 15 W/m 6,4 km/h (2 Bft) 98,11 %
02.08.2020 20:58 21,3 C 20,0 C 19,4 C 65 % 1015,1 hPa 0,0 l/m 0 min 0 min 13 W/m 9,7 km/h (2 Bft) 95,92 %
02.08.2020 21:00 21,3 C 20,0 C 19,4 C 65 % 1015,1 hPa 0,0 l/m 0 min 0 min 11 W/m 6,4 km/h (2 Bft) 97,92 %
02.08.2020 21:02 21,2 C 20,0 C 19,4 C 65 % 1015,1 hPa 0,0 l/m 0 min 0 min 10 W/m 6,4 km/h (2 Bft) 97,30 %
02.08.2020 21:04 21,2 C 20,0 C 19,4 C 65 % 1015,1 hPa 0,0 l/m 0 min 0 min 9 W/m 6,4 km/h (2 Bft) 97,87 %
02.08.2020 21:06 21,2 C 20,0 C 19,4 C 65 % 1015,1 hPa 0,0 l/m 0 min 0 min 7 W/m 9,7 km/h (2 Bft) 98,31 %
02.08.2020 21:08 21,1 C 19,4 C 19,4 C 65 % 1015,1 hPa 0,0 l/m 0 min 0 min 5 W/m 6,4 km/h (2 Bft) 100,00 %
02.08.2020 21:10 21,1 C 19,4 C 19,4 C 65 % 1015,1 hPa 0,0 l/m 0 min 0 min 5 W/m 6,4 km/h (2 Bft) 97,83 %
02.08.2020 21:12 21,1 C 19,4 C 19,4 C 65 % 1015,2 hPa 0,0 l/m 0 min 0 min 1 W/m 9,7 km/h (2 Bft) 97,87 %
02.08.2020 21:14 21,1 C 19,4 C 19,4 C 65 % 1015,2 hPa 0,0 l/m 0 min 0 min 0 W/m 6,4 km/h (2 Bft) 100,00 %
02.08.2020 21:16 21,0 C 19,4 C 19,4 C 65 % 1015,2 hPa 0,0 l/m 0 min 0 min 0 W/m 6,4 km/h (2 Bft) 100,00 %
02.08.2020 21:18 21,0 C 19,4 C 19,4 C 65 % 1015,2 hPa 0,0 l/m 0 min 0 min 0 W/m 3,2 km/h (1 Bft) 100,00 %
02.08.2020 21:20 21,0 C 19,4 C 19,4 C 65 % 1015,2 hPa 0,0 l/m 0 min 0 min 0 W/m 12,9 km/h (3 Bft) 97,87 %
02.08.2020 21:22 20,9 C 19,4 C 19,4 C 65 % 1015,2 hPa 0,0 l/m 0 min 0 min 0 W/m 3,2 km/h (1 Bft) 97,87 %
02.08.2020 21:24 20,9 C 19,4 C 19,4 C 65 % 1015,2 hPa 0,0 l/m 0 min 0 min 0 W/m 6,4 km/h (2 Bft) 100,00 %
02.08.2020 21:26 20,9 C 19,4 C 19,4 C 66 % 1015,2 hPa 0,0 l/m 0 min 0 min 0 W/m 3,2 km/h (1 Bft) 100,00 %
02.08.2020 21:28 20,9 C 19,4 C 19,4 C 66 % 1015,3 hPa 0,0 l/m 0 min 0 min 0 W/m 9,7 km/h (2 Bft) 100,00 %
02.08.2020 21:30 20,9 C 19,4 C 19,4 C 66 % 1015,3 hPa 0,0 l/m 0 min 0 min 0 W/m 6,4 km/h (2 Bft) 100,00 %
02.08.2020 21:32 20,8 C 19,4 C 19,4 C 66 % 1015,2 hPa 0,0 l/m 0 min 0 min 0 W/m 3,2 km/h (1 Bft) 85,11 %
02.08.2020 21:34 20,8 C 19,4 C 19,4 C 66 % 1015,3 hPa 0,0 l/m 0 min 0 min 0 W/m 6,4 km/h (2 Bft) 100,00 %
02.08.2020 21:36 20,8 C 19,4 C 19,4 C 66 % 1015,3 hPa 0,0 l/m 0 min 0 min 0 W/m 9,7 km/h (2 Bft) 100,00 %
02.08.2020 21:38 20,8 C 18,9 C 18,9 C 66 % 1015,3 hPa 0,0 l/m 0 min 0 min 0 W/m 3,2 km/h (1 Bft) 91,43 %
02.08.2020 21:40 20,7 C 18,9 C 18,9 C 66 % 1015,3 hPa 0,0 l/m 0 min 0 min 0 W/m 6,4 km/h (2 Bft) 95,74 %
02.08.2020 21:42 20,7 C 18,9 C 18,9 C 66 % 1015,4 hPa 0,0 l/m 0 min 0 min 0 W/m 12,9 km/h (3 Bft) 100,00 %
02.08.2020 21:44 20,7 C 18,9 C 18,9 C 66 % 1015,4 hPa 0,0 l/m 0 min 0 min 0 W/m 16,1 km/h (3 Bft) 100,00 %
02.08.2020 21:46 20,6 C 18,9 C 18,9 C 66 % 1015,4 hPa 0,0 l/m 0 min 0 min 0 W/m 6,4 km/h (2 Bft) 100,00 %
02.08.2020 21:48 20,6 C 18,9 C 18,9 C 66 % 1015,3 hPa 0,0 l/m 0 min 0 min 0 W/m 6,4 km/h (2 Bft) 100,00 %
02.08.2020 21:50 20,6 C 18,9 C 18,3 C 66 % 1015,3 hPa 0,0 l/m 0 min 0 min 0 W/m 6,4 km/h (2 Bft) 100,00 %
02.08.2020 21:52 20,5 C 18,3 C 18,3 C 66 % 1015,4 hPa 0,0 l/m 0 min 0 min 0 W/m 3,2 km/h (1 Bft) 100,00 %
02.08.2020 21:54 20,4 C 18,3 C 18,3 C 67 % 1015,4 hPa 0,0 l/m 0 min 0 min 0 W/m 9,7 km/h (2 Bft) 97,87 %
02.08.2020 21:56 20,4 C 18,3 C 18,3 C 66 % 1015,4 hPa 0,0 l/m 0 min 0 min 0 W/m 9,7 km/h (2 Bft) 100,00 %
02.08.2020 21:58 20,3 C 18,3 C 18,3 C 67 % 1015,4 hPa 0,0 l/m 0 min 0 min 0 W/m 6,4 km/h (2 Bft) 95,74 %
02.08.2020 22:00 20,3 C 18,3 C 18,3 C 67 % 1015,4 hPa 0,0 l/m 0 min 0 min 0 W/m 3,2 km/h (1 Bft) 95,83 %
02.08.2020 22:02 20,2 C 18,3 C 18,3 C 67 % 1015,4 hPa 0,0 l/m 0 min 0 min 0 W/m 9,7 km/h (2 Bft) 94,59 %
02.08.2020 22:06 20,1 C 17,8 C 17,8 C 67 % 1015,4 hPa 0,0 l/m 0 min 0 min 0 W/m 6,4 km/h (2 Bft) 97,03 %
02.08.2020 22:08 20,1 C 17,8 C 17,8 C 67 % 1015,4 hPa 0,0 l/m 0 min 0 min 0 W/m 6,4 km/h (2 Bft) 94,29 %
02.08.2020 22:10 20,1 C 17,8 C 17,8 C 67 % 1015,4 hPa 0,0 l/m 0 min 0 min 0 W/m 3,2 km/h (1 Bft) 93,48 %
02.08.2020 22:12 20,0 C 17,8 C 17,8 C 67 % 1015,4 hPa 0,0 l/m 0 min 0 min 0 W/m 9,7 km/h (2 Bft) 89,36 %
02.08.2020 22:14 19,9 C 17,8 C 17,8 C 67 % 1015,4 hPa 0,0 l/m 0 min 0 min 0 W/m 3,2 km/h (1 Bft) 95,74 %
02.08.2020 22:16 19,9 C 17,8 C 17,8 C 68 % 1015,4 hPa 0,0 l/m 0 min 0 min 0 W/m 6,4 km/h (2 Bft) 89,36 %
02.08.2020 22:18 19,8 C 17,8 C 17,8 C 68 % 1015,4 hPa 0,0 l/m 0 min 0 min 0 W/m 6,4 km/h (2 Bft) 91,49 %
02.08.2020 22:20 19,8 C 17,8 C 17,8 C 68 % 1015,5 hPa 0,0 l/m 0 min 0 min 0 W/m 6,4 km/h (2 Bft) 92,59 %
02.08.2020 22:22 19,7 C 17,2 C 17,8 C 68 % 1015,4 hPa 0,0 l/m 0 min 0 min 0 W/m 6,4 km/h (2 Bft) 97,92 %
02.08.2020 22:24 19,7 C 17,2 C 17,8 C 68 % 1015,4 hPa 0,0 l/m 0 min 0 min 0 W/m 6,4 km/h (2 Bft) 97,92 %
02.08.2020 22:26 19,6 C 17,2 C 17,2 C 68 % 1015,5 hPa 0,0 l/m 0 min 0 min 0 W/m 3,2 km/h (1 Bft) 97,87 %
02.08.2020 22:28 19,6 C 17,2 C 17,2 C 68 % 1015,4 hPa 0,0 l/m 0 min 0 min 0 W/m 3,2 km/h (1 Bft) 95,83 %
02.08.2020 22:30 19,5 C 17,2 C 17,2 C 68 % 1015,5 hPa 0,0 l/m 0 min 0 min 0 W/m 3,2 km/h (1 Bft) 97,87 %
02.08.2020 22:32 19,4 C 16,7 C 17,2 C 68 % 1015,5 hPa 0,0 l/m 0 min 0 min 0 W/m 0,0 km/h (0 Bft) 95,74 %
02.08.2020 22:34 19,4 C 16,7 C 16,7 C 68 % 1015,5 hPa 0,0 l/m 0 min 0 min 0 W/m 3,2 km/h (1 Bft) 95,74 %
02.08.2020 22:36 19,4 C 16,7 C 16,7 C 69 % 1015,5 hPa 0,0 l/m 0 min 0 min 0 W/m 3,2 km/h (1 Bft) 97,14 %
02.08.2020 22:38 19,3 C 16,7 C 16,7 C 69 % 1015,5 hPa 0,0 l/m 0 min 0 min 0 W/m 3,2 km/h (1 Bft) 97,87 %
02.08.2020 22:40 19,3 C 16,7 C 16,7 C 70 % 1015,5 hPa 0,0 l/m 0 min 0 min 0 W/m 3,2 km/h (1 Bft) 98,15 %
02.08.2020 22:42 19,3 C 16,7 C 16,7 C 70 % 1015,5 hPa 0,0 l/m 0 min 0 min 0 W/m 3,2 km/h (1 Bft) 93,88 %
02.08.2020 22:44 19,2 C 16,1 C 16,7 C 70 % 1015,5 hPa 0,0 l/m 0 min 0 min 0 W/m 3,2 km/h (1 Bft) 95,92 %
02.08.2020 22:46 19,1 C 16,1 C 16,1 C 70 % 1015,5 hPa 0,0 l/m 0 min 0 min 0 W/m 3,2 km/h (1 Bft) 95,74 %
02.08.2020 22:48 19,1 C 16,1 C 16,1 C 70 % 1015,5 hPa 0,0 l/m 0 min 0 min 0 W/m 0,0 km/h (0 Bft) 97,87 %
02.08.2020 22:50 19,0 C 16,1 C 16,1 C 70 % 1015,5 hPa 0,0 l/m 0 min 0 min 0 W/m 0,0 km/h (0 Bft) 91,43 %
02.08.2020 22:52 18,9 C 16,1 C 16,1 C 70 % 1015,5 hPa 0,0 l/m 0 min 0 min 0 W/m 0,0 km/h (0 Bft) 97,87 %
02.08.2020 22:54 18,9 C 16,1 C 16,1 C 70 % 1015,5 hPa 0,0 l/m 0 min 0 min 0 W/m 9,7 km/h (2 Bft) 98,11 %
02.08.2020 22:56 18,8 C 16,1 C 16,1 C 70 % 1015,5 hPa 0,0 l/m 0 min 0 min 0 W/m 3,2 km/h (1 Bft) 97,92 %
02.08.2020 22:58 18,8 C 16,1 C 16,1 C 70 % 1015,5 hPa 0,0 l/m 0 min 0 min 0 W/m 3,2 km/h (1 Bft) 93,75 %
02.08.2020 23:00 18,7 C 16,1 C 16,1 C 71 % 1015,5 hPa 0,0 l/m 0 min 0 min 0 W/m 3,2 km/h (1 Bft) 97,92 %
02.08.2020 23:02 18,6 C 16,1 C 16,1 C 71 % 1015,5 hPa 0,0 l/m 0 min 0 min 0 W/m 3,2 km/h (1 Bft) 95,92 %
02.08.2020 23:04 18,6 C 16,1 C 16,1 C 71 % 1015,6 hPa 0,0 l/m 0 min 0 min 0 W/m 3,2 km/h (1 Bft) 91,49 %
02.08.2020 23:06 18,5 C 16,1 C 16,1 C 71 % 1015,6 hPa 0,0 l/m 0 min 0 min 0 W/m 0,0 km/h (0 Bft) 95,65 %
02.08.2020 23:08 18,4 C 15,6 C 16,1 C 71 % 1015,5 hPa 0,0 l/m 0 min 0 min 0 W/m 3,2 km/h (1 Bft) 100,00 %
02.08.2020 23:10 18,4 C 15,6 C 15,6 C 71 % 1015,5 hPa 0,0 l/m 0 min 0 min 0 W/m 0,0 km/h (0 Bft) 91,49 %
02.08.2020 23:12 18,3 C 15,6 C 15,6 C 71 % 1015,5 hPa 0,0 l/m 0 min 0 min 0 W/m 0,0 km/h (0 Bft) 94,44 %
02.08.2020 23:14 18,3 C 15,6 C 15,6 C 71 % 1015,5 hPa 0,0 l/m 0 min 0 min 0 W/m 0,0 km/h (0 Bft) 95,74 %
02.08.2020 23:16 18,2 C 15,6 C 15,6 C 71 % 1015,5 hPa 0,0 l/m 0 min 0 min 0 W/m 0,0 km/h (0 Bft) 93,88 %
02.08.2020 23:18 18,2 C 15,6 C 15,6 C 71 % 1015,5 hPa 0,0 l/m 0 min 0 min 0 W/m 0,0 km/h (0 Bft) 95,74 %
02.08.2020 23:20 18,1 C 15,6 C 15,6 C 71 % 1015,5 hPa 0,0 l/m 0 min 0 min 0 W/m 3,2 km/h (1 Bft) 95,83 %
02.08.2020 23:22 18,1 C 15,6 C 15,6 C 72 % 1015,5 hPa 0,0 l/m 0 min 0 min 0 W/m 0,0 km/h (0 Bft) 93,75 %
02.08.2020 23:24 18,0 C 15,6 C 15,6 C 72 % 1015,4 hPa 0,0 l/m 0 min 0 min 0 W/m 0,0 km/h (0 Bft) 97,14 %
02.08.2020 23:26 17,9 C 15,6 C 15,6 C 72 % 1015,5 hPa 0,0 l/m 0 min 0 min 0 W/m 0,0 km/h (0 Bft) 95,74 %
02.08.2020 23:28 17,9 C 15,0 C 15,0 C 72 % 1015,5 hPa 0,0 l/m 0 min 0 min 0 W/m 0,0 km/h (0 Bft) 93,62 %
02.08.2020 23:30 17,8 C 15,0 C 15,0 C 72 % 1015,5 hPa 0,0 l/m 0 min 0 min 0 W/m 0,0 km/h (0 Bft) 94,34 %
02.08.2020 23:32 17,8 C 15,0 C 15,0 C 72 % 1015,5 hPa 0,0 l/m 0 min 0 min 0 W/m 0,0 km/h (0 Bft) 95,92 %
02.08.2020 23:34 17,7 C 15,0 C 15,0 C 73 % 1015,5 hPa 0,0 l/m 0 min 0 min 0 W/m 0,0 km/h (0 Bft) 95,83 %
02.08.2020 23:36 17,7 C 15,0 C 15,0 C 73 % 1015,5 hPa 0,0 l/m 0 min 0 min 0 W/m 0,0 km/h (0 Bft) 95,83 %
02.08.2020 23:38 17,6 C 15,0 C 15,0 C 73 % 1015,5 hPa 0,0 l/m 0 min 0 min 0 W/m 0,0 km/h (0 Bft) 95,83 %
02.08.2020 23:40 17,6 C 15,0 C 15,0 C 73 % 1015,5 hPa 0,0 l/m 0 min 0 min 0 W/m 0,0 km/h (0 Bft) 93,48 %
02.08.2020 23:42 17,5 C 15,0 C 15,0 C 73 % 1015,5 hPa 0,0 l/m 0 min 0 min 0 W/m 0,0 km/h (0 Bft) 97,22 %
02.08.2020 23:44 17,4 C 15,0 C 15,0 C 73 % 1015,5 hPa 0,0 l/m 0 min 0 min 0 W/m 0,0 km/h (0 Bft) 94,34 %
02.08.2020 23:46 17,4 C 14,4 C 15,0 C 73 % 1015,5 hPa 0,0 l/m 0 min 0 min 0 W/m 3,2 km/h (1 Bft) 93,75 %
02.08.2020 23:48 17,3 C 14,4 C 14,4 C 73 % 1015,5 hPa 0,0 l/m 0 min 0 min 0 W/m 0,0 km/h (0 Bft) 95,83 %
02.08.2020 23:50 17,3 C 14,4 C 14,4 C 74 % 1015,5 hPa 0,0 l/m 0 min 0 min 0 W/m 0,0 km/h (0 Bft) 93,88 %
02.08.2020 23:52 17,2 C 14,4 C 14,4 C 74 % 1015,5 hPa 0,0 l/m 0 min 0 min 0 W/m 0,0 km/h (0 Bft) 93,62 %
02.08.2020 23:54 17,2 C 14,4 C 14,4 C 74 % 1015,5 hPa 0,0 l/m 0 min 0 min 0 W/m 0,0 km/h (0 Bft) 93,62 %
02.08.2020 23:56 17,1 C 14,4 C 14,4 C 74 % 1015,5 hPa 0,0 l/m 0 min 0 min 0 W/m 0,0 km/h (0 Bft) 97,14 %
02.08.2020 23:58 17,1 C 14,4 C 14,4 C 74 % 1015,5 hPa 0,0 l/m 0 min 0 min 0 W/m 0,0 km/h (0 Bft) 97,87 %
_ Min-Zeit 23:56 23:46 23:48 15:20 18:42 - - - - 00:02 00:02
Minimum _ 17,1 C 14,4 C 14,4 C 63 % 1014,3 hPa - - - - 0,0 km/h (0 Bft) 9,09 %
_ Max-Zeit 14:50 14:20 14:10 07:50 23:04 00:00 14:20 15:38 14:20 10:26 00:08
Maximum _ 25,7 C 31,1 C 28,3 C 84 % 1015,6 hPa 0,0 l/m 5 min 2 min 1044 W/m 22,5 km/h
S-SO (4 Bft)
100,00 %
Durchschnitt _ 21,1 C 20,7 C 20,3 C 73 % 1014,9 hPa #0,0 l/m #3:09 h #4 min. 230 W/m 7,1 km/h (2 Bft) 97,08 %
© 2020 W. Hausmann